<?xml version="1.0" encoding="UTF-8" standalone="no" ?>
<gpx xmlns="http://www.topografix.com/GPX/1/1" xmlns:xsi="http://www.w3.org/2001/XMLSchema-instance" xsi:schemaLocation="http://www.topografix.com/GPX/1/1 http://www.topografix.com/GPX/1/1/gpx.xsd" version="1.1" creator="VisuGPX - https://www.visugpx.com">
  <metadata>
    <name>CDS j14</name>
    <desc><![CDATA[chemin du soleil]]></desc>
  </metadata>
  <trk>
    <name><![CDATA[ACTIVE LOG082112]]></name>
    <trkseg>
      <trkpt lat="43.79493" lon="7.1251">
        <ele>1006</ele>
        <time>2011-08-22T06:21:10Z</time>
      </trkpt>
      <trkpt lat="43.79495" lon="7.1251">
        <ele>1006</ele>
        <time>2011-08-22T06:21:42Z</time>
      </trkpt>
      <trkpt lat="43.79498" lon="7.12523">
        <ele>1007</ele>
        <time>2011-08-22T06:21:51Z</time>
      </trkpt>
      <trkpt lat="43.79501" lon="7.12533">
        <ele>1004</ele>
        <time>2011-08-22T06:21:57Z</time>
      </trkpt>
      <trkpt lat="43.79497" lon="7.12543">
        <ele>1008</ele>
        <time>2011-08-22T06:22:03Z</time>
      </trkpt>
      <trkpt lat="43.79495" lon="7.12546">
        <ele>1008</ele>
        <time>2011-08-22T06:22:05Z</time>
      </trkpt>
      <trkpt lat="43.79492" lon="7.12563">
        <ele>1008</ele>
        <time>2011-08-22T06:22:13Z</time>
      </trkpt>
      <trkpt lat="43.79492" lon="7.1257">
        <ele>1008</ele>
        <time>2011-08-22T06:22:17Z</time>
      </trkpt>
      <trkpt lat="43.79484" lon="7.126">
        <ele>1009</ele>
        <time>2011-08-22T06:22:34Z</time>
      </trkpt>
      <trkpt lat="43.79452" lon="7.12608">
        <ele>1011</ele>
        <time>2011-08-22T06:22:52Z</time>
      </trkpt>
      <trkpt lat="43.79428" lon="7.12627">
        <ele>1012</ele>
        <time>2011-08-22T06:23:06Z</time>
      </trkpt>
      <trkpt lat="43.79394" lon="7.12641">
        <ele>1016</ele>
        <time>2011-08-22T06:23:20Z</time>
      </trkpt>
      <trkpt lat="43.79368" lon="7.12677">
        <ele>1016</ele>
        <time>2011-08-22T06:23:36Z</time>
      </trkpt>
      <trkpt lat="43.79354" lon="7.12711">
        <ele>1016</ele>
        <time>2011-08-22T06:23:51Z</time>
      </trkpt>
      <trkpt lat="43.79342" lon="7.12715">
        <ele>1016</ele>
        <time>2011-08-22T06:24:05Z</time>
      </trkpt>
      <trkpt lat="43.79333" lon="7.12716">
        <ele>1018</ele>
        <time>2011-08-22T06:24:15Z</time>
      </trkpt>
      <trkpt lat="43.79302" lon="7.12741">
        <ele>1017</ele>
        <time>2011-08-22T06:24:30Z</time>
      </trkpt>
      <trkpt lat="43.79291" lon="7.12787">
        <ele>1011</ele>
        <time>2011-08-22T06:24:42Z</time>
      </trkpt>
      <trkpt lat="43.79286" lon="7.12843">
        <ele>1003</ele>
        <time>2011-08-22T06:24:56Z</time>
      </trkpt>
      <trkpt lat="43.79278" lon="7.12892">
        <ele>1001</ele>
        <time>2011-08-22T06:25:08Z</time>
      </trkpt>
      <trkpt lat="43.79258" lon="7.12885">
        <ele>1000</ele>
        <time>2011-08-22T06:25:19Z</time>
      </trkpt>
      <trkpt lat="43.79234" lon="7.12889">
        <ele>989</ele>
        <time>2011-08-22T06:25:30Z</time>
      </trkpt>
      <trkpt lat="43.79233" lon="7.12889">
        <ele>989</ele>
        <time>2011-08-22T06:25:37Z</time>
      </trkpt>
      <trkpt lat="43.79231" lon="7.12903">
        <ele>989</ele>
        <time>2011-08-22T06:25:47Z</time>
      </trkpt>
      <trkpt lat="43.79235" lon="7.12904">
        <ele>989</ele>
        <time>2011-08-22T06:25:49Z</time>
      </trkpt>
      <trkpt lat="43.79248" lon="7.1292">
        <ele>989</ele>
        <time>2011-08-22T06:25:57Z</time>
      </trkpt>
      <trkpt lat="43.79248" lon="7.12925">
        <ele>987</ele>
        <time>2011-08-22T06:26:00Z</time>
      </trkpt>
      <trkpt lat="43.79237" lon="7.12934">
        <ele>982</ele>
        <time>2011-08-22T06:26:07Z</time>
      </trkpt>
      <trkpt lat="43.79232" lon="7.12938">
        <ele>981</ele>
        <time>2011-08-22T06:26:10Z</time>
      </trkpt>
      <trkpt lat="43.79229" lon="7.12949">
        <ele>979</ele>
        <time>2011-08-22T06:26:14Z</time>
      </trkpt>
      <trkpt lat="43.79236" lon="7.12998">
        <ele>978</ele>
        <time>2011-08-22T06:26:26Z</time>
      </trkpt>
      <trkpt lat="43.7924" lon="7.13016">
        <ele>973</ele>
        <time>2011-08-22T06:26:38Z</time>
      </trkpt>
      <trkpt lat="43.79239" lon="7.13036">
        <ele>970</ele>
        <time>2011-08-22T06:27:17Z</time>
      </trkpt>
      <trkpt lat="43.79237" lon="7.13045">
        <ele>969</ele>
        <time>2011-08-22T06:27:20Z</time>
      </trkpt>
      <trkpt lat="43.79232" lon="7.13052">
        <ele>968</ele>
        <time>2011-08-22T06:27:23Z</time>
      </trkpt>
      <trkpt lat="43.792" lon="7.13055">
        <ele>965</ele>
        <time>2011-08-22T06:27:39Z</time>
      </trkpt>
      <trkpt lat="43.79175" lon="7.13073">
        <ele>960</ele>
        <time>2011-08-22T06:27:51Z</time>
      </trkpt>
      <trkpt lat="43.79169" lon="7.13079">
        <ele>957</ele>
        <time>2011-08-22T06:27:54Z</time>
      </trkpt>
      <trkpt lat="43.79144" lon="7.13086">
        <ele>950</ele>
        <time>2011-08-22T06:28:06Z</time>
      </trkpt>
      <trkpt lat="43.79134" lon="7.13096">
        <ele>948</ele>
        <time>2011-08-22T06:28:10Z</time>
      </trkpt>
      <trkpt lat="43.79116" lon="7.13142">
        <ele>946</ele>
        <time>2011-08-22T06:28:19Z</time>
      </trkpt>
      <trkpt lat="43.79101" lon="7.13203">
        <ele>946</ele>
        <time>2011-08-22T06:28:31Z</time>
      </trkpt>
      <trkpt lat="43.79082" lon="7.13258">
        <ele>943</ele>
        <time>2011-08-22T06:28:43Z</time>
      </trkpt>
      <trkpt lat="43.79078" lon="7.13276">
        <ele>943</ele>
        <time>2011-08-22T06:28:49Z</time>
      </trkpt>
      <trkpt lat="43.79062" lon="7.13329">
        <ele>945</ele>
        <time>2011-08-22T06:28:59Z</time>
      </trkpt>
      <trkpt lat="43.79058" lon="7.13338">
        <ele>947</ele>
        <time>2011-08-22T06:29:18Z</time>
      </trkpt>
      <trkpt lat="43.79054" lon="7.13356">
        <ele>947</ele>
        <time>2011-08-22T06:29:38Z</time>
      </trkpt>
      <trkpt lat="43.79049" lon="7.13371">
        <ele>947</ele>
        <time>2011-08-22T06:29:55Z</time>
      </trkpt>
      <trkpt lat="43.79045" lon="7.13389">
        <ele>948</ele>
        <time>2011-08-22T06:30:16Z</time>
      </trkpt>
      <trkpt lat="43.79033" lon="7.13429">
        <ele>951</ele>
        <time>2011-08-22T06:30:31Z</time>
      </trkpt>
      <trkpt lat="43.79022" lon="7.13464">
        <ele>951</ele>
        <time>2011-08-22T06:30:44Z</time>
      </trkpt>
      <trkpt lat="43.79006" lon="7.13521">
        <ele>953</ele>
        <time>2011-08-22T06:31:01Z</time>
      </trkpt>
      <trkpt lat="43.78989" lon="7.13569">
        <ele>952</ele>
        <time>2011-08-22T06:31:15Z</time>
      </trkpt>
      <trkpt lat="43.78968" lon="7.13641">
        <ele>951</ele>
        <time>2011-08-22T06:31:29Z</time>
      </trkpt>
      <trkpt lat="43.7894" lon="7.1374">
        <ele>949</ele>
        <time>2011-08-22T06:31:44Z</time>
      </trkpt>
      <trkpt lat="43.78923" lon="7.13802">
        <ele>946</ele>
        <time>2011-08-22T06:31:59Z</time>
      </trkpt>
      <trkpt lat="43.78907" lon="7.13853">
        <ele>943</ele>
        <time>2011-08-22T06:32:11Z</time>
      </trkpt>
      <trkpt lat="43.78884" lon="7.13924">
        <ele>935</ele>
        <time>2011-08-22T06:32:23Z</time>
      </trkpt>
      <trkpt lat="43.78875" lon="7.13964">
        <ele>932</ele>
        <time>2011-08-22T06:32:33Z</time>
      </trkpt>
      <trkpt lat="43.78869" lon="7.13985">
        <ele>931</ele>
        <time>2011-08-22T06:33:08Z</time>
      </trkpt>
      <trkpt lat="43.78868" lon="7.13988">
        <ele>931</ele>
        <time>2011-08-22T06:33:20Z</time>
      </trkpt>
      <trkpt lat="43.78865" lon="7.13998">
        <ele>930</ele>
        <time>2011-08-22T06:33:31Z</time>
      </trkpt>
      <trkpt lat="43.78866" lon="7.13998">
        <ele>930</ele>
        <time>2011-08-22T06:34:24Z</time>
      </trkpt>
      <trkpt lat="43.78866" lon="7.13998">
        <ele>930</ele>
        <time>2011-08-22T06:36:28Z</time>
      </trkpt>
      <trkpt lat="43.78866" lon="7.13997">
        <ele>930</ele>
        <time>2011-08-22T06:44:57Z</time>
      </trkpt>
      <trkpt lat="43.78861" lon="7.14009">
        <ele>923</ele>
        <time>2011-08-22T06:48:04Z</time>
      </trkpt>
      <trkpt lat="43.78853" lon="7.1402">
        <ele>922</ele>
        <time>2011-08-22T06:48:09Z</time>
      </trkpt>
      <trkpt lat="43.78842" lon="7.1407">
        <ele>918</ele>
        <time>2011-08-22T06:48:23Z</time>
      </trkpt>
      <trkpt lat="43.78836" lon="7.141">
        <ele>913</ele>
        <time>2011-08-22T06:48:33Z</time>
      </trkpt>
      <trkpt lat="43.78828" lon="7.14131">
        <ele>910</ele>
        <time>2011-08-22T06:48:43Z</time>
      </trkpt>
      <trkpt lat="43.78805" lon="7.14219">
        <ele>904</ele>
        <time>2011-08-22T06:48:58Z</time>
      </trkpt>
      <trkpt lat="43.7879" lon="7.14273">
        <ele>898</ele>
        <time>2011-08-22T06:49:12Z</time>
      </trkpt>
      <trkpt lat="43.78773" lon="7.14321">
        <ele>895</ele>
        <time>2011-08-22T06:49:24Z</time>
      </trkpt>
      <trkpt lat="43.78743" lon="7.14328">
        <ele>892</ele>
        <time>2011-08-22T06:49:33Z</time>
      </trkpt>
      <trkpt lat="43.78724" lon="7.14317">
        <ele>892</ele>
        <time>2011-08-22T06:49:38Z</time>
      </trkpt>
      <trkpt lat="43.78675" lon="7.1431">
        <ele>890</ele>
        <time>2011-08-22T06:49:51Z</time>
      </trkpt>
      <trkpt lat="43.78657" lon="7.14331">
        <ele>884</ele>
        <time>2011-08-22T06:49:59Z</time>
      </trkpt>
      <trkpt lat="43.78638" lon="7.14347">
        <ele>869</ele>
        <time>2011-08-22T06:50:08Z</time>
      </trkpt>
      <trkpt lat="43.78625" lon="7.14348">
        <ele>867</ele>
        <time>2011-08-22T06:50:14Z</time>
      </trkpt>
      <trkpt lat="43.78584" lon="7.14313">
        <ele>877</ele>
        <time>2011-08-22T06:50:28Z</time>
      </trkpt>
      <trkpt lat="43.78566" lon="7.14306">
        <ele>869</ele>
        <time>2011-08-22T06:50:33Z</time>
      </trkpt>
      <trkpt lat="43.78528" lon="7.14286">
        <ele>868</ele>
        <time>2011-08-22T06:50:46Z</time>
      </trkpt>
      <trkpt lat="43.78517" lon="7.14286">
        <ele>868</ele>
        <time>2011-08-22T06:50:51Z</time>
      </trkpt>
      <trkpt lat="43.78507" lon="7.14274">
        <ele>869</ele>
        <time>2011-08-22T06:50:57Z</time>
      </trkpt>
      <trkpt lat="43.78498" lon="7.14269">
        <ele>861</ele>
        <time>2011-08-22T06:51:02Z</time>
      </trkpt>
      <trkpt lat="43.78495" lon="7.14266">
        <ele>862</ele>
        <time>2011-08-22T06:51:04Z</time>
      </trkpt>
      <trkpt lat="43.78475" lon="7.14264">
        <ele>857</ele>
        <time>2011-08-22T06:51:15Z</time>
      </trkpt>
      <trkpt lat="43.78447" lon="7.14252">
        <ele>852</ele>
        <time>2011-08-22T06:51:27Z</time>
      </trkpt>
      <trkpt lat="43.78414" lon="7.14238">
        <ele>853</ele>
        <time>2011-08-22T06:51:38Z</time>
      </trkpt>
      <trkpt lat="43.78379" lon="7.14229">
        <ele>854</ele>
        <time>2011-08-22T06:51:51Z</time>
      </trkpt>
      <trkpt lat="43.78376" lon="7.14229">
        <ele>853</ele>
        <time>2011-08-22T06:51:52Z</time>
      </trkpt>
      <trkpt lat="43.78375" lon="7.14248">
        <ele>852</ele>
        <time>2011-08-22T06:51:59Z</time>
      </trkpt>
      <trkpt lat="43.78406" lon="7.14286">
        <ele>838</ele>
        <time>2011-08-22T06:52:12Z</time>
      </trkpt>
      <trkpt lat="43.78429" lon="7.14307">
        <ele>843</ele>
        <time>2011-08-22T06:52:22Z</time>
      </trkpt>
      <trkpt lat="43.78454" lon="7.1434">
        <ele>830</ele>
        <time>2011-08-22T06:52:32Z</time>
      </trkpt>
      <trkpt lat="43.78456" lon="7.14344">
        <ele>830</ele>
        <time>2011-08-22T06:52:33Z</time>
      </trkpt>
      <trkpt lat="43.78478" lon="7.14384">
        <ele>828</ele>
        <time>2011-08-22T06:52:42Z</time>
      </trkpt>
      <trkpt lat="43.78497" lon="7.14407">
        <ele>825</ele>
        <time>2011-08-22T06:52:47Z</time>
      </trkpt>
      <trkpt lat="43.78533" lon="7.14467">
        <ele>823</ele>
        <time>2011-08-22T06:52:58Z</time>
      </trkpt>
      <trkpt lat="43.78561" lon="7.14492">
        <ele>823</ele>
        <time>2011-08-22T06:53:08Z</time>
      </trkpt>
      <trkpt lat="43.78579" lon="7.1452">
        <ele>817</ele>
        <time>2011-08-22T06:53:17Z</time>
      </trkpt>
      <trkpt lat="43.78588" lon="7.1453">
        <ele>821</ele>
        <time>2011-08-22T06:53:20Z</time>
      </trkpt>
      <trkpt lat="43.78601" lon="7.14551">
        <ele>820</ele>
        <time>2011-08-22T06:53:24Z</time>
      </trkpt>
      <trkpt lat="43.78637" lon="7.14598">
        <ele>816</ele>
        <time>2011-08-22T06:53:37Z</time>
      </trkpt>
      <trkpt lat="43.78651" lon="7.14637">
        <ele>815</ele>
        <time>2011-08-22T06:53:50Z</time>
      </trkpt>
      <trkpt lat="43.78673" lon="7.14653">
        <ele>815</ele>
        <time>2011-08-22T06:54:00Z</time>
      </trkpt>
      <trkpt lat="43.78672" lon="7.14681">
        <ele>814</ele>
        <time>2011-08-22T06:54:11Z</time>
      </trkpt>
      <trkpt lat="43.7867" lon="7.1469">
        <ele>815</ele>
        <time>2011-08-22T06:54:37Z</time>
      </trkpt>
      <trkpt lat="43.78667" lon="7.14691">
        <ele>815</ele>
        <time>2011-08-22T06:54:43Z</time>
      </trkpt>
      <trkpt lat="43.78655" lon="7.1469">
        <ele>819</ele>
        <time>2011-08-22T06:54:59Z</time>
      </trkpt>
      <trkpt lat="43.78647" lon="7.14684">
        <ele>819</ele>
        <time>2011-08-22T06:55:11Z</time>
      </trkpt>
      <trkpt lat="43.78641" lon="7.14681">
        <ele>820</ele>
        <time>2011-08-22T06:55:20Z</time>
      </trkpt>
      <trkpt lat="43.78607" lon="7.14657">
        <ele>816</ele>
        <time>2011-08-22T06:55:34Z</time>
      </trkpt>
      <trkpt lat="43.78594" lon="7.14652">
        <ele>816</ele>
        <time>2011-08-22T06:55:39Z</time>
      </trkpt>
      <trkpt lat="43.78582" lon="7.14652">
        <ele>818</ele>
        <time>2011-08-22T06:55:44Z</time>
      </trkpt>
      <trkpt lat="43.78578" lon="7.14652">
        <ele>818</ele>
        <time>2011-08-22T06:55:52Z</time>
      </trkpt>
      <trkpt lat="43.78568" lon="7.1465">
        <ele>819</ele>
        <time>2011-08-22T06:56:04Z</time>
      </trkpt>
      <trkpt lat="43.78539" lon="7.14618">
        <ele>818</ele>
        <time>2011-08-22T06:56:16Z</time>
      </trkpt>
      <trkpt lat="43.78507" lon="7.14582">
        <ele>814</ele>
        <time>2011-08-22T06:56:28Z</time>
      </trkpt>
      <trkpt lat="43.7848" lon="7.14548">
        <ele>817</ele>
        <time>2011-08-22T06:56:40Z</time>
      </trkpt>
      <trkpt lat="43.78461" lon="7.14534">
        <ele>817</ele>
        <time>2011-08-22T06:56:54Z</time>
      </trkpt>
      <trkpt lat="43.78444" lon="7.1451">
        <ele>817</ele>
        <time>2011-08-22T06:57:01Z</time>
      </trkpt>
      <trkpt lat="43.78433" lon="7.14502">
        <ele>817</ele>
        <time>2011-08-22T06:57:05Z</time>
      </trkpt>
      <trkpt lat="43.78427" lon="7.14487">
        <ele>816</ele>
        <time>2011-08-22T06:57:09Z</time>
      </trkpt>
      <trkpt lat="43.78408" lon="7.14449">
        <ele>818</ele>
        <time>2011-08-22T06:57:20Z</time>
      </trkpt>
      <trkpt lat="43.78393" lon="7.14424">
        <ele>818</ele>
        <time>2011-08-22T06:57:28Z</time>
      </trkpt>
      <trkpt lat="43.78381" lon="7.14402">
        <ele>821</ele>
        <time>2011-08-22T06:57:42Z</time>
      </trkpt>
      <trkpt lat="43.78379" lon="7.14398">
        <ele>821</ele>
        <time>2011-08-22T06:57:47Z</time>
      </trkpt>
      <trkpt lat="43.78372" lon="7.14395">
        <ele>821</ele>
        <time>2011-08-22T06:57:53Z</time>
      </trkpt>
      <trkpt lat="43.7837" lon="7.14393">
        <ele>822</ele>
        <time>2011-08-22T06:57:56Z</time>
      </trkpt>
      <trkpt lat="43.78361" lon="7.14385">
        <ele>822</ele>
        <time>2011-08-22T06:58:08Z</time>
      </trkpt>
      <trkpt lat="43.78349" lon="7.14382">
        <ele>822</ele>
        <time>2011-08-22T06:58:22Z</time>
      </trkpt>
      <trkpt lat="43.78347" lon="7.14379">
        <ele>823</ele>
        <time>2011-08-22T06:58:26Z</time>
      </trkpt>
      <trkpt lat="43.78344" lon="7.14371">
        <ele>823</ele>
        <time>2011-08-22T06:58:37Z</time>
      </trkpt>
      <trkpt lat="43.78338" lon="7.14364">
        <ele>823</ele>
        <time>2011-08-22T06:58:42Z</time>
      </trkpt>
      <trkpt lat="43.78325" lon="7.1436">
        <ele>826</ele>
        <time>2011-08-22T06:58:51Z</time>
      </trkpt>
      <trkpt lat="43.78297" lon="7.14359">
        <ele>827</ele>
        <time>2011-08-22T06:59:02Z</time>
      </trkpt>
      <trkpt lat="43.78281" lon="7.1437">
        <ele>827</ele>
        <time>2011-08-22T06:59:09Z</time>
      </trkpt>
      <trkpt lat="43.78278" lon="7.14369">
        <ele>827</ele>
        <time>2011-08-22T06:59:11Z</time>
      </trkpt>
      <trkpt lat="43.78264" lon="7.14367">
        <ele>828</ele>
        <time>2011-08-22T06:59:18Z</time>
      </trkpt>
      <trkpt lat="43.78257" lon="7.14355">
        <ele>828</ele>
        <time>2011-08-22T06:59:23Z</time>
      </trkpt>
      <trkpt lat="43.78237" lon="7.14324">
        <ele>831</ele>
        <time>2011-08-22T06:59:35Z</time>
      </trkpt>
      <trkpt lat="43.78232" lon="7.14322">
        <ele>832</ele>
        <time>2011-08-22T06:59:42Z</time>
      </trkpt>
      <trkpt lat="43.78219" lon="7.14326">
        <ele>833</ele>
        <time>2011-08-22T06:59:57Z</time>
      </trkpt>
      <trkpt lat="43.78212" lon="7.14321">
        <ele>833</ele>
        <time>2011-08-22T07:00:09Z</time>
      </trkpt>
      <trkpt lat="43.78199" lon="7.14311">
        <ele>834</ele>
        <time>2011-08-22T07:00:26Z</time>
      </trkpt>
      <trkpt lat="43.78189" lon="7.14298">
        <ele>835</ele>
        <time>2011-08-22T07:00:42Z</time>
      </trkpt>
      <trkpt lat="43.78179" lon="7.14288">
        <ele>835</ele>
        <time>2011-08-22T07:00:56Z</time>
      </trkpt>
      <trkpt lat="43.78164" lon="7.14274">
        <ele>838</ele>
        <time>2011-08-22T07:01:07Z</time>
      </trkpt>
      <trkpt lat="43.78164" lon="7.14274">
        <ele>838</ele>
        <time>2011-08-22T07:01:08Z</time>
      </trkpt>
      <trkpt lat="43.78156" lon="7.14271">
        <ele>838</ele>
        <time>2011-08-22T07:01:15Z</time>
      </trkpt>
      <trkpt lat="43.78142" lon="7.14261">
        <ele>838</ele>
        <time>2011-08-22T07:01:29Z</time>
      </trkpt>
      <trkpt lat="43.78133" lon="7.14256">
        <ele>839</ele>
        <time>2011-08-22T07:01:40Z</time>
      </trkpt>
      <trkpt lat="43.7812" lon="7.14248">
        <ele>840</ele>
        <time>2011-08-22T07:01:55Z</time>
      </trkpt>
      <trkpt lat="43.78118" lon="7.14247">
        <ele>840</ele>
        <time>2011-08-22T07:01:59Z</time>
      </trkpt>
      <trkpt lat="43.78088" lon="7.14232">
        <ele>841</ele>
        <time>2011-08-22T07:02:13Z</time>
      </trkpt>
      <trkpt lat="43.78068" lon="7.14237">
        <ele>842</ele>
        <time>2011-08-22T07:02:23Z</time>
      </trkpt>
      <trkpt lat="43.78059" lon="7.14244">
        <ele>842</ele>
        <time>2011-08-22T07:02:34Z</time>
      </trkpt>
      <trkpt lat="43.7805" lon="7.14249">
        <ele>842</ele>
        <time>2011-08-22T07:02:48Z</time>
      </trkpt>
      <trkpt lat="43.78048" lon="7.14249">
        <ele>843</ele>
        <time>2011-08-22T07:02:52Z</time>
      </trkpt>
      <trkpt lat="43.78015" lon="7.14253">
        <ele>845</ele>
        <time>2011-08-22T07:03:05Z</time>
      </trkpt>
      <trkpt lat="43.77998" lon="7.14257">
        <ele>846</ele>
        <time>2011-08-22T07:03:13Z</time>
      </trkpt>
      <trkpt lat="43.77967" lon="7.14254">
        <ele>850</ele>
        <time>2011-08-22T07:03:29Z</time>
      </trkpt>
      <trkpt lat="43.7796" lon="7.14252">
        <ele>851</ele>
        <time>2011-08-22T07:03:33Z</time>
      </trkpt>
      <trkpt lat="43.77955" lon="7.1425">
        <ele>847</ele>
        <time>2011-08-22T07:03:37Z</time>
      </trkpt>
      <trkpt lat="43.77952" lon="7.14252">
        <ele>851</ele>
        <time>2011-08-22T07:03:41Z</time>
      </trkpt>
      <trkpt lat="43.77946" lon="7.14257">
        <ele>851</ele>
        <time>2011-08-22T07:03:46Z</time>
      </trkpt>
      <trkpt lat="43.77906" lon="7.14249">
        <ele>849</ele>
        <time>2011-08-22T07:04:00Z</time>
      </trkpt>
      <trkpt lat="43.77859" lon="7.14244">
        <ele>850</ele>
        <time>2011-08-22T07:04:15Z</time>
      </trkpt>
      <trkpt lat="43.77856" lon="7.14242">
        <ele>850</ele>
        <time>2011-08-22T07:04:16Z</time>
      </trkpt>
      <trkpt lat="43.77823" lon="7.14205">
        <ele>849</ele>
        <time>2011-08-22T07:04:28Z</time>
      </trkpt>
      <trkpt lat="43.77818" lon="7.14199">
        <ele>849</ele>
        <time>2011-08-22T07:04:32Z</time>
      </trkpt>
      <trkpt lat="43.77807" lon="7.14204">
        <ele>849</ele>
        <time>2011-08-22T07:04:44Z</time>
      </trkpt>
      <trkpt lat="43.77802" lon="7.14204">
        <ele>850</ele>
        <time>2011-08-22T07:04:49Z</time>
      </trkpt>
      <trkpt lat="43.77797" lon="7.142">
        <ele>849</ele>
        <time>2011-08-22T07:04:54Z</time>
      </trkpt>
      <trkpt lat="43.77785" lon="7.14196">
        <ele>849</ele>
        <time>2011-08-22T07:05:08Z</time>
      </trkpt>
      <trkpt lat="43.77785" lon="7.14196">
        <ele>849</ele>
        <time>2011-08-22T07:05:09Z</time>
      </trkpt>
      <trkpt lat="43.77782" lon="7.14193">
        <ele>849</ele>
        <time>2011-08-22T07:05:12Z</time>
      </trkpt>
      <trkpt lat="43.77778" lon="7.14192">
        <ele>849</ele>
        <time>2011-08-22T07:05:16Z</time>
      </trkpt>
      <trkpt lat="43.77773" lon="7.14189">
        <ele>848</ele>
        <time>2011-08-22T07:05:24Z</time>
      </trkpt>
      <trkpt lat="43.77767" lon="7.1419">
        <ele>848</ele>
        <time>2011-08-22T07:05:27Z</time>
      </trkpt>
      <trkpt lat="43.77734" lon="7.14179">
        <ele>848</ele>
        <time>2011-08-22T07:05:40Z</time>
      </trkpt>
      <trkpt lat="43.77711" lon="7.14163">
        <ele>841</ele>
        <time>2011-08-22T07:05:50Z</time>
      </trkpt>
      <trkpt lat="43.77709" lon="7.14161">
        <ele>841</ele>
        <time>2011-08-22T07:05:51Z</time>
      </trkpt>
      <trkpt lat="43.77693" lon="7.14152">
        <ele>841</ele>
        <time>2011-08-22T07:05:58Z</time>
      </trkpt>
      <trkpt lat="43.77683" lon="7.1414">
        <ele>841</ele>
        <time>2011-08-22T07:06:08Z</time>
      </trkpt>
      <trkpt lat="43.77681" lon="7.14138">
        <ele>841</ele>
        <time>2011-08-22T07:06:09Z</time>
      </trkpt>
      <trkpt lat="43.77677" lon="7.14124">
        <ele>840</ele>
        <time>2011-08-22T07:06:13Z</time>
      </trkpt>
      <trkpt lat="43.7767" lon="7.14119">
        <ele>839</ele>
        <time>2011-08-22T07:06:17Z</time>
      </trkpt>
      <trkpt lat="43.77658" lon="7.14103">
        <ele>836</ele>
        <time>2011-08-22T07:06:23Z</time>
      </trkpt>
      <trkpt lat="43.77633" lon="7.14077">
        <ele>833</ele>
        <time>2011-08-22T07:06:34Z</time>
      </trkpt>
      <trkpt lat="43.77631" lon="7.14074">
        <ele>833</ele>
        <time>2011-08-22T07:06:40Z</time>
      </trkpt>
      <trkpt lat="43.77627" lon="7.14069">
        <ele>833</ele>
        <time>2011-08-22T07:06:52Z</time>
      </trkpt>
      <trkpt lat="43.77607" lon="7.14057">
        <ele>832</ele>
        <time>2011-08-22T07:07:04Z</time>
      </trkpt>
      <trkpt lat="43.77595" lon="7.14053">
        <ele>832</ele>
        <time>2011-08-22T07:07:09Z</time>
      </trkpt>
      <trkpt lat="43.77585" lon="7.14052">
        <ele>832</ele>
        <time>2011-08-22T07:07:22Z</time>
      </trkpt>
      <trkpt lat="43.77574" lon="7.14055">
        <ele>824</ele>
        <time>2011-08-22T07:07:36Z</time>
      </trkpt>
      <trkpt lat="43.77569" lon="7.14056">
        <ele>823</ele>
        <time>2011-08-22T07:07:38Z</time>
      </trkpt>
      <trkpt lat="43.77561" lon="7.14043">
        <ele>822</ele>
        <time>2011-08-22T07:07:43Z</time>
      </trkpt>
      <trkpt lat="43.77558" lon="7.14038">
        <ele>822</ele>
        <time>2011-08-22T07:07:56Z</time>
      </trkpt>
      <trkpt lat="43.77543" lon="7.14034">
        <ele>820</ele>
        <time>2011-08-22T07:08:13Z</time>
      </trkpt>
      <trkpt lat="43.77536" lon="7.14034">
        <ele>819</ele>
        <time>2011-08-22T07:08:23Z</time>
      </trkpt>
      <trkpt lat="43.77533" lon="7.14024">
        <ele>818</ele>
        <time>2011-08-22T07:08:40Z</time>
      </trkpt>
      <trkpt lat="43.77532" lon="7.1402">
        <ele>818</ele>
        <time>2011-08-22T07:08:44Z</time>
      </trkpt>
      <trkpt lat="43.77532" lon="7.1401">
        <ele>817</ele>
        <time>2011-08-22T07:08:52Z</time>
      </trkpt>
      <trkpt lat="43.77521" lon="7.14004">
        <ele>814</ele>
        <time>2011-08-22T07:09:08Z</time>
      </trkpt>
      <trkpt lat="43.77513" lon="7.13997">
        <ele>810</ele>
        <time>2011-08-22T07:09:24Z</time>
      </trkpt>
      <trkpt lat="43.77511" lon="7.13996">
        <ele>809</ele>
        <time>2011-08-22T07:09:26Z</time>
      </trkpt>
      <trkpt lat="43.77499" lon="7.13982">
        <ele>802</ele>
        <time>2011-08-22T07:09:44Z</time>
      </trkpt>
      <trkpt lat="43.77494" lon="7.13978">
        <ele>802</ele>
        <time>2011-08-22T07:09:59Z</time>
      </trkpt>
      <trkpt lat="43.77475" lon="7.13979">
        <ele>801</ele>
        <time>2011-08-22T07:10:09Z</time>
      </trkpt>
      <trkpt lat="43.77448" lon="7.13995">
        <ele>799</ele>
        <time>2011-08-22T07:10:19Z</time>
      </trkpt>
      <trkpt lat="43.77434" lon="7.14002">
        <ele>798</ele>
        <time>2011-08-22T07:10:22Z</time>
      </trkpt>
      <trkpt lat="43.77413" lon="7.14016">
        <ele>792</ele>
        <time>2011-08-22T07:10:27Z</time>
      </trkpt>
      <trkpt lat="43.774" lon="7.14022">
        <ele>792</ele>
        <time>2011-08-22T07:10:30Z</time>
      </trkpt>
      <trkpt lat="43.77361" lon="7.14062">
        <ele>789</ele>
        <time>2011-08-22T07:10:43Z</time>
      </trkpt>
      <trkpt lat="43.77355" lon="7.1407">
        <ele>787</ele>
        <time>2011-08-22T07:10:53Z</time>
      </trkpt>
      <trkpt lat="43.77338" lon="7.14089">
        <ele>784</ele>
        <time>2011-08-22T07:11:07Z</time>
      </trkpt>
      <trkpt lat="43.77312" lon="7.14136">
        <ele>780</ele>
        <time>2011-08-22T07:11:20Z</time>
      </trkpt>
      <trkpt lat="43.77297" lon="7.14173">
        <ele>779</ele>
        <time>2011-08-22T07:11:30Z</time>
      </trkpt>
      <trkpt lat="43.77264" lon="7.14218">
        <ele>775</ele>
        <time>2011-08-22T07:11:43Z</time>
      </trkpt>
      <trkpt lat="43.77252" lon="7.14255">
        <ele>768</ele>
        <time>2011-08-22T07:11:52Z</time>
      </trkpt>
      <trkpt lat="43.7724" lon="7.14254">
        <ele>765</ele>
        <time>2011-08-22T07:11:58Z</time>
      </trkpt>
      <trkpt lat="43.7721" lon="7.1426">
        <ele>765</ele>
        <time>2011-08-22T07:12:05Z</time>
      </trkpt>
      <trkpt lat="43.77191" lon="7.14275">
        <ele>765</ele>
        <time>2011-08-22T07:12:10Z</time>
      </trkpt>
      <trkpt lat="43.7718" lon="7.14289">
        <ele>764</ele>
        <time>2011-08-22T07:12:14Z</time>
      </trkpt>
      <trkpt lat="43.77161" lon="7.14318">
        <ele>765</ele>
        <time>2011-08-22T07:12:21Z</time>
      </trkpt>
      <trkpt lat="43.77137" lon="7.14343">
        <ele>761</ele>
        <time>2011-08-22T07:12:28Z</time>
      </trkpt>
      <trkpt lat="43.77081" lon="7.14403">
        <ele>760</ele>
        <time>2011-08-22T07:12:45Z</time>
      </trkpt>
      <trkpt lat="43.77073" lon="7.14407">
        <ele>760</ele>
        <time>2011-08-22T07:12:47Z</time>
      </trkpt>
      <trkpt lat="43.77013" lon="7.14457">
        <ele>757</ele>
        <time>2011-08-22T07:13:04Z</time>
      </trkpt>
      <trkpt lat="43.76971" lon="7.14472">
        <ele>755</ele>
        <time>2011-08-22T07:13:15Z</time>
      </trkpt>
      <trkpt lat="43.76909" lon="7.14485">
        <ele>748</ele>
        <time>2011-08-22T07:13:28Z</time>
      </trkpt>
      <trkpt lat="43.76903" lon="7.14486">
        <ele>748</ele>
        <time>2011-08-22T07:13:29Z</time>
      </trkpt>
      <trkpt lat="43.7688" lon="7.14487">
        <ele>747</ele>
        <time>2011-08-22T07:13:33Z</time>
      </trkpt>
      <trkpt lat="43.76844" lon="7.14482">
        <ele>744</ele>
        <time>2011-08-22T07:13:41Z</time>
      </trkpt>
      <trkpt lat="43.76831" lon="7.14482">
        <ele>738</ele>
        <time>2011-08-22T07:13:44Z</time>
      </trkpt>
      <trkpt lat="43.76818" lon="7.14478">
        <ele>738</ele>
        <time>2011-08-22T07:13:57Z</time>
      </trkpt>
      <trkpt lat="43.76817" lon="7.14476">
        <ele>738</ele>
        <time>2011-08-22T07:14:17Z</time>
      </trkpt>
      <trkpt lat="43.76794" lon="7.14475">
        <ele>737</ele>
        <time>2011-08-22T07:16:24Z</time>
      </trkpt>
      <trkpt lat="43.76781" lon="7.14472">
        <ele>737</ele>
        <time>2011-08-22T07:16:27Z</time>
      </trkpt>
      <trkpt lat="43.76753" lon="7.1446">
        <ele>736</ele>
        <time>2011-08-22T07:16:34Z</time>
      </trkpt>
      <trkpt lat="43.76737" lon="7.14467">
        <ele>727</ele>
        <time>2011-08-22T07:16:41Z</time>
      </trkpt>
      <trkpt lat="43.76685" lon="7.14445">
        <ele>722</ele>
        <time>2011-08-22T07:16:58Z</time>
      </trkpt>
      <trkpt lat="43.76674" lon="7.14442">
        <ele>721</ele>
        <time>2011-08-22T07:17:01Z</time>
      </trkpt>
      <trkpt lat="43.7666" lon="7.14439">
        <ele>713</ele>
        <time>2011-08-22T07:17:04Z</time>
      </trkpt>
      <trkpt lat="43.76642" lon="7.14436">
        <ele>713</ele>
        <time>2011-08-22T07:17:08Z</time>
      </trkpt>
      <trkpt lat="43.76591" lon="7.14436">
        <ele>708</ele>
        <time>2011-08-22T07:17:21Z</time>
      </trkpt>
      <trkpt lat="43.76576" lon="7.14441">
        <ele>702</ele>
        <time>2011-08-22T07:17:24Z</time>
      </trkpt>
      <trkpt lat="43.76554" lon="7.1444">
        <ele>701</ele>
        <time>2011-08-22T07:17:28Z</time>
      </trkpt>
      <trkpt lat="43.76539" lon="7.14439">
        <ele>700</ele>
        <time>2011-08-22T07:17:31Z</time>
      </trkpt>
      <trkpt lat="43.76499" lon="7.14456">
        <ele>693</ele>
        <time>2011-08-22T07:17:40Z</time>
      </trkpt>
      <trkpt lat="43.76463" lon="7.14463">
        <ele>692</ele>
        <time>2011-08-22T07:17:46Z</time>
      </trkpt>
      <trkpt lat="43.76432" lon="7.14458">
        <ele>691</ele>
        <time>2011-08-22T07:17:51Z</time>
      </trkpt>
      <trkpt lat="43.76411" lon="7.14449">
        <ele>685</ele>
        <time>2011-08-22T07:17:55Z</time>
      </trkpt>
      <trkpt lat="43.76393" lon="7.14452">
        <ele>685</ele>
        <time>2011-08-22T07:17:58Z</time>
      </trkpt>
      <trkpt lat="43.76374" lon="7.14449">
        <ele>684</ele>
        <time>2011-08-22T07:18:01Z</time>
      </trkpt>
      <trkpt lat="43.76339" lon="7.14454">
        <ele>683</ele>
        <time>2011-08-22T07:18:07Z</time>
      </trkpt>
      <trkpt lat="43.7631" lon="7.14454">
        <ele>680</ele>
        <time>2011-08-22T07:18:12Z</time>
      </trkpt>
      <trkpt lat="43.76275" lon="7.14441">
        <ele>678</ele>
        <time>2011-08-22T07:18:18Z</time>
      </trkpt>
      <trkpt lat="43.7621" lon="7.14422">
        <ele>676</ele>
        <time>2011-08-22T07:18:28Z</time>
      </trkpt>
      <trkpt lat="43.76161" lon="7.1441">
        <ele>669</ele>
        <time>2011-08-22T07:18:36Z</time>
      </trkpt>
      <trkpt lat="43.76144" lon="7.14402">
        <ele>669</ele>
        <time>2011-08-22T07:18:40Z</time>
      </trkpt>
      <trkpt lat="43.76106" lon="7.14379">
        <ele>669</ele>
        <time>2011-08-22T07:18:48Z</time>
      </trkpt>
      <trkpt lat="43.76024" lon="7.1432">
        <ele>659</ele>
        <time>2011-08-22T07:19:02Z</time>
      </trkpt>
      <trkpt lat="43.75978" lon="7.14312">
        <ele>656</ele>
        <time>2011-08-22T07:19:09Z</time>
      </trkpt>
      <trkpt lat="43.75928" lon="7.14308">
        <ele>655</ele>
        <time>2011-08-22T07:19:22Z</time>
      </trkpt>
      <trkpt lat="43.75918" lon="7.14305">
        <ele>655</ele>
        <time>2011-08-22T07:19:25Z</time>
      </trkpt>
      <trkpt lat="43.75895" lon="7.14303">
        <ele>653</ele>
        <time>2011-08-22T07:19:32Z</time>
      </trkpt>
      <trkpt lat="43.75889" lon="7.14295">
        <ele>653</ele>
        <time>2011-08-22T07:19:37Z</time>
      </trkpt>
      <trkpt lat="43.75857" lon="7.143">
        <ele>653</ele>
        <time>2011-08-22T07:19:48Z</time>
      </trkpt>
      <trkpt lat="43.75835" lon="7.14305">
        <ele>651</ele>
        <time>2011-08-22T07:19:52Z</time>
      </trkpt>
      <trkpt lat="43.75815" lon="7.14313">
        <ele>649</ele>
        <time>2011-08-22T07:19:55Z</time>
      </trkpt>
      <trkpt lat="43.75791" lon="7.14326">
        <ele>648</ele>
        <time>2011-08-22T07:19:59Z</time>
      </trkpt>
      <trkpt lat="43.75752" lon="7.14331">
        <ele>638</ele>
        <time>2011-08-22T07:20:09Z</time>
      </trkpt>
      <trkpt lat="43.75707" lon="7.14316">
        <ele>641</ele>
        <time>2011-08-22T07:20:23Z</time>
      </trkpt>
      <trkpt lat="43.75677" lon="7.14313">
        <ele>637</ele>
        <time>2011-08-22T07:20:33Z</time>
      </trkpt>
      <trkpt lat="43.75648" lon="7.14317">
        <ele>629</ele>
        <time>2011-08-22T07:20:43Z</time>
      </trkpt>
      <trkpt lat="43.75627" lon="7.14319">
        <ele>628</ele>
        <time>2011-08-22T07:20:50Z</time>
      </trkpt>
      <trkpt lat="43.75622" lon="7.14323">
        <ele>627</ele>
        <time>2011-08-22T07:20:52Z</time>
      </trkpt>
      <trkpt lat="43.75584" lon="7.14333">
        <ele>609</ele>
        <time>2011-08-22T07:21:06Z</time>
      </trkpt>
      <trkpt lat="43.75548" lon="7.14331">
        <ele>611</ele>
        <time>2011-08-22T07:21:19Z</time>
      </trkpt>
      <trkpt lat="43.75523" lon="7.14336">
        <ele>598</ele>
        <time>2011-08-22T07:21:30Z</time>
      </trkpt>
      <trkpt lat="43.7549" lon="7.14325">
        <ele>593</ele>
        <time>2011-08-22T07:21:45Z</time>
      </trkpt>
      <trkpt lat="43.7547" lon="7.1432">
        <ele>592</ele>
        <time>2011-08-22T07:21:56Z</time>
      </trkpt>
      <trkpt lat="43.7545" lon="7.14305">
        <ele>590</ele>
        <time>2011-08-22T07:30:28Z</time>
      </trkpt>
      <trkpt lat="43.7542" lon="7.14286">
        <ele>591</ele>
        <time>2011-08-22T07:30:40Z</time>
      </trkpt>
      <trkpt lat="43.75387" lon="7.14267">
        <ele>574</ele>
        <time>2011-08-22T07:30:53Z</time>
      </trkpt>
      <trkpt lat="43.7537" lon="7.14263">
        <ele>571</ele>
        <time>2011-08-22T07:30:59Z</time>
      </trkpt>
      <trkpt lat="43.75357" lon="7.14262">
        <ele>569</ele>
        <time>2011-08-22T07:31:04Z</time>
      </trkpt>
      <trkpt lat="43.75357" lon="7.14272">
        <ele>568</ele>
        <time>2011-08-22T07:31:08Z</time>
      </trkpt>
      <trkpt lat="43.75385" lon="7.14297">
        <ele>568</ele>
        <time>2011-08-22T07:31:19Z</time>
      </trkpt>
      <trkpt lat="43.75384" lon="7.14304">
        <ele>566</ele>
        <time>2011-08-22T07:31:25Z</time>
      </trkpt>
      <trkpt lat="43.7535" lon="7.1429">
        <ele>564</ele>
        <time>2011-08-22T07:31:39Z</time>
      </trkpt>
      <trkpt lat="43.75315" lon="7.14274">
        <ele>548</ele>
        <time>2011-08-22T07:31:51Z</time>
      </trkpt>
      <trkpt lat="43.75299" lon="7.14258">
        <ele>547</ele>
        <time>2011-08-22T07:31:57Z</time>
      </trkpt>
      <trkpt lat="43.75271" lon="7.14249">
        <ele>560</ele>
        <time>2011-08-22T07:32:08Z</time>
      </trkpt>
      <trkpt lat="43.75271" lon="7.14249">
        <ele>560</ele>
        <time>2011-08-22T07:40:32Z</time>
      </trkpt>
      <trkpt lat="43.75237" lon="7.14245">
        <ele>544</ele>
        <time>2011-08-22T07:40:44Z</time>
      </trkpt>
      <trkpt lat="43.75217" lon="7.1424">
        <ele>543</ele>
        <time>2011-08-22T07:40:50Z</time>
      </trkpt>
      <trkpt lat="43.75178" lon="7.14212">
        <ele>542</ele>
        <time>2011-08-22T07:41:03Z</time>
      </trkpt>
      <trkpt lat="43.75176" lon="7.14212">
        <ele>542</ele>
        <time>2011-08-22T07:41:04Z</time>
      </trkpt>
      <trkpt lat="43.75171" lon="7.14209">
        <ele>543</ele>
        <time>2011-08-22T07:41:14Z</time>
      </trkpt>
      <trkpt lat="43.7515" lon="7.14197">
        <ele>529</ele>
        <time>2011-08-22T07:42:20Z</time>
      </trkpt>
      <trkpt lat="43.75128" lon="7.14184">
        <ele>527</ele>
        <time>2011-08-22T07:42:27Z</time>
      </trkpt>
      <trkpt lat="43.75093" lon="7.14175">
        <ele>524</ele>
        <time>2011-08-22T07:42:38Z</time>
      </trkpt>
      <trkpt lat="43.7505" lon="7.14163">
        <ele>529</ele>
        <time>2011-08-22T07:42:53Z</time>
      </trkpt>
      <trkpt lat="43.75044" lon="7.14164">
        <ele>529</ele>
        <time>2011-08-22T07:42:55Z</time>
      </trkpt>
      <trkpt lat="43.75031" lon="7.14154">
        <ele>527</ele>
        <time>2011-08-22T07:43:00Z</time>
      </trkpt>
      <trkpt lat="43.74983" lon="7.1415">
        <ele>508</ele>
        <time>2011-08-22T07:43:11Z</time>
      </trkpt>
      <trkpt lat="43.74949" lon="7.14167">
        <ele>486</ele>
        <time>2011-08-22T07:43:23Z</time>
      </trkpt>
      <trkpt lat="43.74942" lon="7.14183">
        <ele>484</ele>
        <time>2011-08-22T07:43:31Z</time>
      </trkpt>
      <trkpt lat="43.74937" lon="7.14188">
        <ele>483</ele>
        <time>2011-08-22T07:43:36Z</time>
      </trkpt>
      <trkpt lat="43.74929" lon="7.14193">
        <ele>482</ele>
        <time>2011-08-22T07:43:40Z</time>
      </trkpt>
      <trkpt lat="43.74921" lon="7.14192">
        <ele>482</ele>
        <time>2011-08-22T07:43:43Z</time>
      </trkpt>
      <trkpt lat="43.74917" lon="7.14196">
        <ele>481</ele>
        <time>2011-08-22T07:43:47Z</time>
      </trkpt>
      <trkpt lat="43.74926" lon="7.142">
        <ele>481</ele>
        <time>2011-08-22T07:43:52Z</time>
      </trkpt>
      <trkpt lat="43.74923" lon="7.14204">
        <ele>480</ele>
        <time>2011-08-22T07:43:57Z</time>
      </trkpt>
      <trkpt lat="43.74899" lon="7.14205">
        <ele>468</ele>
        <time>2011-08-22T07:44:06Z</time>
      </trkpt>
      <trkpt lat="43.74903" lon="7.14222">
        <ele>466</ele>
        <time>2011-08-22T07:44:13Z</time>
      </trkpt>
      <trkpt lat="43.74897" lon="7.14223">
        <ele>466</ele>
        <time>2011-08-22T07:44:16Z</time>
      </trkpt>
      <trkpt lat="43.74851" lon="7.14225">
        <ele>462</ele>
        <time>2011-08-22T07:44:27Z</time>
      </trkpt>
      <trkpt lat="43.74832" lon="7.1423">
        <ele>452</ele>
        <time>2011-08-22T07:44:35Z</time>
      </trkpt>
      <trkpt lat="43.74823" lon="7.14229">
        <ele>452</ele>
        <time>2011-08-22T07:45:09Z</time>
      </trkpt>
      <trkpt lat="43.74807" lon="7.14231">
        <ele>452</ele>
        <time>2011-08-22T07:45:17Z</time>
      </trkpt>
      <trkpt lat="43.74803" lon="7.14231">
        <ele>451</ele>
        <time>2011-08-22T07:45:19Z</time>
      </trkpt>
      <trkpt lat="43.74784" lon="7.14238">
        <ele>450</ele>
        <time>2011-08-22T07:45:30Z</time>
      </trkpt>
      <trkpt lat="43.74772" lon="7.14244">
        <ele>448</ele>
        <time>2011-08-22T07:45:39Z</time>
      </trkpt>
      <trkpt lat="43.74771" lon="7.14245">
        <ele>448</ele>
        <time>2011-08-22T07:46:01Z</time>
      </trkpt>
      <trkpt lat="43.74767" lon="7.14254">
        <ele>443</ele>
        <time>2011-08-22T07:46:05Z</time>
      </trkpt>
      <trkpt lat="43.74762" lon="7.14256">
        <ele>443</ele>
        <time>2011-08-22T07:46:09Z</time>
      </trkpt>
      <trkpt lat="43.74758" lon="7.14251">
        <ele>443</ele>
        <time>2011-08-22T07:46:24Z</time>
      </trkpt>
      <trkpt lat="43.74761" lon="7.14252">
        <ele>443</ele>
        <time>2011-08-22T07:48:07Z</time>
      </trkpt>
      <trkpt lat="43.74774" lon="7.14267">
        <ele>443</ele>
        <time>2011-08-22T07:48:15Z</time>
      </trkpt>
      <trkpt lat="43.74799" lon="7.14297">
        <ele>443</ele>
        <time>2011-08-22T07:48:29Z</time>
      </trkpt>
      <trkpt lat="43.748" lon="7.14296">
        <ele>443</ele>
        <time>2011-08-22T07:48:38Z</time>
      </trkpt>
      <trkpt lat="43.74807" lon="7.14315">
        <ele>442</ele>
        <time>2011-08-22T07:48:45Z</time>
      </trkpt>
      <trkpt lat="43.74793" lon="7.14336">
        <ele>433</ele>
        <time>2011-08-22T07:48:57Z</time>
      </trkpt>
      <trkpt lat="43.74794" lon="7.14337">
        <ele>433</ele>
        <time>2011-08-22T07:48:58Z</time>
      </trkpt>
      <trkpt lat="43.74831" lon="7.14355">
        <ele>434</ele>
        <time>2011-08-22T07:49:12Z</time>
      </trkpt>
      <trkpt lat="43.74832" lon="7.14354">
        <ele>434</ele>
        <time>2011-08-22T07:49:25Z</time>
      </trkpt>
      <trkpt lat="43.74834" lon="7.14354">
        <ele>434</ele>
        <time>2011-08-22T07:50:08Z</time>
      </trkpt>
      <trkpt lat="43.74837" lon="7.14361">
        <ele>433</ele>
        <time>2011-08-22T07:50:11Z</time>
      </trkpt>
      <trkpt lat="43.74857" lon="7.14373">
        <ele>431</ele>
        <time>2011-08-22T07:50:23Z</time>
      </trkpt>
      <trkpt lat="43.74872" lon="7.1436">
        <ele>433</ele>
        <time>2011-08-22T07:50:32Z</time>
      </trkpt>
      <trkpt lat="43.74874" lon="7.14357">
        <ele>433</ele>
        <time>2011-08-22T07:50:38Z</time>
      </trkpt>
      <trkpt lat="43.74881" lon="7.14363">
        <ele>432</ele>
        <time>2011-08-22T07:50:42Z</time>
      </trkpt>
      <trkpt lat="43.74914" lon="7.14376">
        <ele>431</ele>
        <time>2011-08-22T07:50:53Z</time>
      </trkpt>
      <trkpt lat="43.74915" lon="7.14378">
        <ele>431</ele>
        <time>2011-08-22T07:50:55Z</time>
      </trkpt>
      <trkpt lat="43.74963" lon="7.14399">
        <ele>433</ele>
        <time>2011-08-22T07:51:04Z</time>
      </trkpt>
      <trkpt lat="43.7501" lon="7.1442">
        <ele>430</ele>
        <time>2011-08-22T07:51:15Z</time>
      </trkpt>
      <trkpt lat="43.7503" lon="7.14461">
        <ele>433</ele>
        <time>2011-08-22T07:51:24Z</time>
      </trkpt>
      <trkpt lat="43.75016" lon="7.14492">
        <ele>428</ele>
        <time>2011-08-22T07:51:28Z</time>
      </trkpt>
      <trkpt lat="43.74998" lon="7.1451">
        <ele>419</ele>
        <time>2011-08-22T07:51:31Z</time>
      </trkpt>
      <trkpt lat="43.74977" lon="7.14521">
        <ele>415</ele>
        <time>2011-08-22T07:51:35Z</time>
      </trkpt>
      <trkpt lat="43.74959" lon="7.14559">
        <ele>413</ele>
        <time>2011-08-22T07:51:41Z</time>
      </trkpt>
      <trkpt lat="43.74951" lon="7.14615">
        <ele>412</ele>
        <time>2011-08-22T07:51:48Z</time>
      </trkpt>
      <trkpt lat="43.74922" lon="7.14704">
        <ele>411</ele>
        <time>2011-08-22T07:52:01Z</time>
      </trkpt>
      <trkpt lat="43.74893" lon="7.14807">
        <ele>398</ele>
        <time>2011-08-22T07:52:12Z</time>
      </trkpt>
      <trkpt lat="43.74874" lon="7.14841">
        <ele>402</ele>
        <time>2011-08-22T07:52:16Z</time>
      </trkpt>
      <trkpt lat="43.74827" lon="7.14882">
        <ele>382</ele>
        <time>2011-08-22T07:52:22Z</time>
      </trkpt>
      <trkpt lat="43.74807" lon="7.14918">
        <ele>386</ele>
        <time>2011-08-22T07:52:26Z</time>
      </trkpt>
      <trkpt lat="43.74791" lon="7.14957">
        <ele>381</ele>
        <time>2011-08-22T07:52:30Z</time>
      </trkpt>
      <trkpt lat="43.74799" lon="7.15017">
        <ele>377</ele>
        <time>2011-08-22T07:52:36Z</time>
      </trkpt>
      <trkpt lat="43.74855" lon="7.1514">
        <ele>385</ele>
        <time>2011-08-22T07:52:47Z</time>
      </trkpt>
      <trkpt lat="43.74855" lon="7.15226">
        <ele>375</ele>
        <time>2011-08-22T07:52:56Z</time>
      </trkpt>
      <trkpt lat="43.74855" lon="7.15253">
        <ele>370</ele>
        <time>2011-08-22T07:53:01Z</time>
      </trkpt>
      <trkpt lat="43.74865" lon="7.15264">
        <ele>371</ele>
        <time>2011-08-22T07:53:06Z</time>
      </trkpt>
      <trkpt lat="43.74879" lon="7.15295">
        <ele>373</ele>
        <time>2011-08-22T07:53:19Z</time>
      </trkpt>
      <trkpt lat="43.74896" lon="7.15338">
        <ele>374</ele>
        <time>2011-08-22T07:53:37Z</time>
      </trkpt>
      <trkpt lat="43.74912" lon="7.15387">
        <ele>374</ele>
        <time>2011-08-22T07:53:55Z</time>
      </trkpt>
      <trkpt lat="43.74925" lon="7.15445">
        <ele>383</ele>
        <time>2011-08-22T07:54:12Z</time>
      </trkpt>
      <trkpt lat="43.74956" lon="7.15501">
        <ele>382</ele>
        <time>2011-08-22T07:54:29Z</time>
      </trkpt>
      <trkpt lat="43.74984" lon="7.15557">
        <ele>384</ele>
        <time>2011-08-22T07:54:45Z</time>
      </trkpt>
      <trkpt lat="43.75003" lon="7.15605">
        <ele>390</ele>
        <time>2011-08-22T07:55:00Z</time>
      </trkpt>
      <trkpt lat="43.75015" lon="7.1565">
        <ele>389</ele>
        <time>2011-08-22T07:55:12Z</time>
      </trkpt>
      <trkpt lat="43.75021" lon="7.15674">
        <ele>384</ele>
        <time>2011-08-22T07:55:16Z</time>
      </trkpt>
      <trkpt lat="43.75035" lon="7.15731">
        <ele>381</ele>
        <time>2011-08-22T07:55:22Z</time>
      </trkpt>
      <trkpt lat="43.75051" lon="7.15762">
        <ele>374</ele>
        <time>2011-08-22T07:55:26Z</time>
      </trkpt>
      <trkpt lat="43.7506" lon="7.15778">
        <ele>373</ele>
        <time>2011-08-22T07:55:30Z</time>
      </trkpt>
      <trkpt lat="43.7511" lon="7.15815">
        <ele>380</ele>
        <time>2011-08-22T07:55:41Z</time>
      </trkpt>
      <trkpt lat="43.75181" lon="7.1588">
        <ele>382</ele>
        <time>2011-08-22T07:55:56Z</time>
      </trkpt>
      <trkpt lat="43.75243" lon="7.15985">
        <ele>371</ele>
        <time>2011-08-22T07:56:15Z</time>
      </trkpt>
      <trkpt lat="43.75287" lon="7.16062">
        <ele>373</ele>
        <time>2011-08-22T07:56:28Z</time>
      </trkpt>
      <trkpt lat="43.75293" lon="7.16073">
        <ele>374</ele>
        <time>2011-08-22T07:56:30Z</time>
      </trkpt>
      <trkpt lat="43.75317" lon="7.16106">
        <ele>370</ele>
        <time>2011-08-22T07:56:37Z</time>
      </trkpt>
      <trkpt lat="43.75354" lon="7.16139">
        <ele>377</ele>
        <time>2011-08-22T07:56:47Z</time>
      </trkpt>
      <trkpt lat="43.75396" lon="7.16173">
        <ele>374</ele>
        <time>2011-08-22T07:56:59Z</time>
      </trkpt>
      <trkpt lat="43.75408" lon="7.16177">
        <ele>376</ele>
        <time>2011-08-22T07:57:03Z</time>
      </trkpt>
      <trkpt lat="43.75448" lon="7.1624">
        <ele>380</ele>
        <time>2011-08-22T07:57:18Z</time>
      </trkpt>
      <trkpt lat="43.75492" lon="7.16316">
        <ele>377</ele>
        <time>2011-08-22T07:57:34Z</time>
      </trkpt>
      <trkpt lat="43.7555" lon="7.16367">
        <ele>381</ele>
        <time>2011-08-22T07:57:51Z</time>
      </trkpt>
      <trkpt lat="43.75597" lon="7.16404">
        <ele>388</ele>
        <time>2011-08-22T07:58:05Z</time>
      </trkpt>
      <trkpt lat="43.75631" lon="7.16454">
        <ele>385</ele>
        <time>2011-08-22T07:58:20Z</time>
      </trkpt>
      <trkpt lat="43.75662" lon="7.16478">
        <ele>386</ele>
        <time>2011-08-22T07:58:33Z</time>
      </trkpt>
      <trkpt lat="43.75697" lon="7.16511">
        <ele>390</ele>
        <time>2011-08-22T07:58:47Z</time>
      </trkpt>
      <trkpt lat="43.75718" lon="7.16533">
        <ele>392</ele>
        <time>2011-08-22T07:58:56Z</time>
      </trkpt>
      <trkpt lat="43.75768" lon="7.16574">
        <ele>401</ele>
        <time>2011-08-22T07:59:15Z</time>
      </trkpt>
      <trkpt lat="43.75821" lon="7.16609">
        <ele>398</ele>
        <time>2011-08-22T07:59:35Z</time>
      </trkpt>
      <trkpt lat="43.75858" lon="7.1662">
        <ele>404</ele>
        <time>2011-08-22T07:59:48Z</time>
      </trkpt>
      <trkpt lat="43.75905" lon="7.16621">
        <ele>406</ele>
        <time>2011-08-22T08:00:01Z</time>
      </trkpt>
      <trkpt lat="43.75956" lon="7.16659">
        <ele>413</ele>
        <time>2011-08-22T08:00:16Z</time>
      </trkpt>
      <trkpt lat="43.75975" lon="7.16687">
        <ele>405</ele>
        <time>2011-08-22T08:00:23Z</time>
      </trkpt>
      <trkpt lat="43.75991" lon="7.16725">
        <ele>403</ele>
        <time>2011-08-22T08:00:32Z</time>
      </trkpt>
      <trkpt lat="43.75985" lon="7.16733">
        <ele>403</ele>
        <time>2011-08-22T08:00:42Z</time>
      </trkpt>
      <trkpt lat="43.75982" lon="7.16743">
        <ele>403</ele>
        <time>2011-08-22T08:00:47Z</time>
      </trkpt>
      <trkpt lat="43.75977" lon="7.16741">
        <ele>402</ele>
        <time>2011-08-22T08:00:51Z</time>
      </trkpt>
      <trkpt lat="43.75967" lon="7.16721">
        <ele>402</ele>
        <time>2011-08-22T08:01:04Z</time>
      </trkpt>
      <trkpt lat="43.7596" lon="7.16719">
        <ele>401</ele>
        <time>2011-08-22T08:01:16Z</time>
      </trkpt>
      <trkpt lat="43.75952" lon="7.16729">
        <ele>399</ele>
        <time>2011-08-22T08:01:30Z</time>
      </trkpt>
      <trkpt lat="43.75943" lon="7.16747">
        <ele>396</ele>
        <time>2011-08-22T08:01:44Z</time>
      </trkpt>
      <trkpt lat="43.75941" lon="7.16749">
        <ele>395</ele>
        <time>2011-08-22T08:01:45Z</time>
      </trkpt>
      <trkpt lat="43.7594" lon="7.1676">
        <ele>387</ele>
        <time>2011-08-22T08:01:49Z</time>
      </trkpt>
      <trkpt lat="43.75954" lon="7.16786">
        <ele>388</ele>
        <time>2011-08-22T08:02:00Z</time>
      </trkpt>
      <trkpt lat="43.75961" lon="7.16815">
        <ele>386</ele>
        <time>2011-08-22T08:02:12Z</time>
      </trkpt>
      <trkpt lat="43.75963" lon="7.16822">
        <ele>386</ele>
        <time>2011-08-22T08:02:22Z</time>
      </trkpt>
      <trkpt lat="43.75965" lon="7.16831">
        <ele>386</ele>
        <time>2011-08-22T08:02:34Z</time>
      </trkpt>
      <trkpt lat="43.75972" lon="7.16841">
        <ele>377</ele>
        <time>2011-08-22T08:02:44Z</time>
      </trkpt>
      <trkpt lat="43.75974" lon="7.16848">
        <ele>377</ele>
        <time>2011-08-22T08:02:57Z</time>
      </trkpt>
      <trkpt lat="43.75976" lon="7.16857">
        <ele>376</ele>
        <time>2011-08-22T08:03:07Z</time>
      </trkpt>
      <trkpt lat="43.75977" lon="7.16862">
        <ele>375</ele>
        <time>2011-08-22T08:03:15Z</time>
      </trkpt>
      <trkpt lat="43.75975" lon="7.1687">
        <ele>374</ele>
        <time>2011-08-22T08:03:19Z</time>
      </trkpt>
      <trkpt lat="43.75974" lon="7.16881">
        <ele>373</ele>
        <time>2011-08-22T08:03:25Z</time>
      </trkpt>
      <trkpt lat="43.75972" lon="7.16883">
        <ele>372</ele>
        <time>2011-08-22T08:03:27Z</time>
      </trkpt>
      <trkpt lat="43.75972" lon="7.16887">
        <ele>372</ele>
        <time>2011-08-22T08:03:29Z</time>
      </trkpt>
      <trkpt lat="43.75971" lon="7.169">
        <ele>371</ele>
        <time>2011-08-22T08:03:34Z</time>
      </trkpt>
      <trkpt lat="43.75979" lon="7.16934">
        <ele>361</ele>
        <time>2011-08-22T08:03:44Z</time>
      </trkpt>
      <trkpt lat="43.75984" lon="7.16945">
        <ele>360</ele>
        <time>2011-08-22T08:03:47Z</time>
      </trkpt>
      <trkpt lat="43.75992" lon="7.16988">
        <ele>357</ele>
        <time>2011-08-22T08:04:00Z</time>
      </trkpt>
      <trkpt lat="43.75994" lon="7.17055">
        <ele>346</ele>
        <time>2011-08-22T08:04:12Z</time>
      </trkpt>
      <trkpt lat="43.7599" lon="7.17106">
        <ele>338</ele>
        <time>2011-08-22T08:04:20Z</time>
      </trkpt>
      <trkpt lat="43.75981" lon="7.17147">
        <ele>334</ele>
        <time>2011-08-22T08:04:25Z</time>
      </trkpt>
      <trkpt lat="43.75957" lon="7.17203">
        <ele>325</ele>
        <time>2011-08-22T08:04:34Z</time>
      </trkpt>
      <trkpt lat="43.75951" lon="7.17241">
        <ele>324</ele>
        <time>2011-08-22T08:04:39Z</time>
      </trkpt>
      <trkpt lat="43.75953" lon="7.17264">
        <ele>316</ele>
        <time>2011-08-22T08:04:42Z</time>
      </trkpt>
      <trkpt lat="43.7594" lon="7.17338">
        <ele>305</ele>
        <time>2011-08-22T08:04:51Z</time>
      </trkpt>
      <trkpt lat="43.75927" lon="7.17355">
        <ele>305</ele>
        <time>2011-08-22T08:04:58Z</time>
      </trkpt>
      <trkpt lat="43.7592" lon="7.17359">
        <ele>304</ele>
        <time>2011-08-22T08:05:01Z</time>
      </trkpt>
      <trkpt lat="43.75922" lon="7.17388">
        <ele>300</ele>
        <time>2011-08-22T08:05:08Z</time>
      </trkpt>
      <trkpt lat="43.75935" lon="7.17387">
        <ele>300</ele>
        <time>2011-08-22T08:05:13Z</time>
      </trkpt>
      <trkpt lat="43.75938" lon="7.17393">
        <ele>299</ele>
        <time>2011-08-22T08:05:20Z</time>
      </trkpt>
      <trkpt lat="43.75929" lon="7.17421">
        <ele>292</ele>
        <time>2011-08-22T08:05:31Z</time>
      </trkpt>
      <trkpt lat="43.75931" lon="7.1743">
        <ele>291</ele>
        <time>2011-08-22T08:05:46Z</time>
      </trkpt>
      <trkpt lat="43.75927" lon="7.17435">
        <ele>290</ele>
        <time>2011-08-22T08:06:00Z</time>
      </trkpt>
      <trkpt lat="43.75925" lon="7.1744">
        <ele>289</ele>
        <time>2011-08-22T08:06:04Z</time>
      </trkpt>
      <trkpt lat="43.75918" lon="7.17462">
        <ele>286</ele>
        <time>2011-08-22T08:06:15Z</time>
      </trkpt>
      <trkpt lat="43.75906" lon="7.17455">
        <ele>292</ele>
        <time>2011-08-22T08:06:20Z</time>
      </trkpt>
      <trkpt lat="43.75894" lon="7.17444">
        <ele>293</ele>
        <time>2011-08-22T08:06:25Z</time>
      </trkpt>
      <trkpt lat="43.7589" lon="7.17445">
        <ele>293</ele>
        <time>2011-08-22T08:06:33Z</time>
      </trkpt>
      <trkpt lat="43.75897" lon="7.17455">
        <ele>292</ele>
        <time>2011-08-22T08:06:40Z</time>
      </trkpt>
      <trkpt lat="43.7591" lon="7.17497">
        <ele>283</ele>
        <time>2011-08-22T08:06:52Z</time>
      </trkpt>
      <trkpt lat="43.75922" lon="7.17517">
        <ele>276</ele>
        <time>2011-08-22T08:06:56Z</time>
      </trkpt>
      <trkpt lat="43.75951" lon="7.17555">
        <ele>271</ele>
        <time>2011-08-22T08:07:06Z</time>
      </trkpt>
      <trkpt lat="43.75955" lon="7.1756">
        <ele>271</ele>
        <time>2011-08-22T08:07:07Z</time>
      </trkpt>
      <trkpt lat="43.75994" lon="7.17585">
        <ele>265</ele>
        <time>2011-08-22T08:07:16Z</time>
      </trkpt>
      <trkpt lat="43.76002" lon="7.17602">
        <ele>264</ele>
        <time>2011-08-22T08:07:21Z</time>
      </trkpt>
      <trkpt lat="43.7601" lon="7.17619">
        <ele>264</ele>
        <time>2011-08-22T08:07:25Z</time>
      </trkpt>
      <trkpt lat="43.76028" lon="7.1766">
        <ele>263</ele>
        <time>2011-08-22T08:07:37Z</time>
      </trkpt>
      <trkpt lat="43.7604" lon="7.17656">
        <ele>264</ele>
        <time>2011-08-22T08:07:47Z</time>
      </trkpt>
      <trkpt lat="43.76041" lon="7.17654">
        <ele>264</ele>
        <time>2011-08-22T08:08:07Z</time>
      </trkpt>
      <trkpt lat="43.76057" lon="7.17667">
        <ele>269</ele>
        <time>2011-08-22T08:08:17Z</time>
      </trkpt>
      <trkpt lat="43.76084" lon="7.17687">
        <ele>265</ele>
        <time>2011-08-22T08:08:27Z</time>
      </trkpt>
      <trkpt lat="43.76111" lon="7.17714">
        <ele>265</ele>
        <time>2011-08-22T08:08:37Z</time>
      </trkpt>
      <trkpt lat="43.76132" lon="7.17757">
        <ele>265</ele>
        <time>2011-08-22T08:08:48Z</time>
      </trkpt>
      <trkpt lat="43.76132" lon="7.17826">
        <ele>264</ele>
        <time>2011-08-22T08:09:03Z</time>
      </trkpt>
      <trkpt lat="43.76126" lon="7.17866">
        <ele>261</ele>
        <time>2011-08-22T08:09:16Z</time>
      </trkpt>
      <trkpt lat="43.76116" lon="7.17895">
        <ele>261</ele>
        <time>2011-08-22T08:09:25Z</time>
      </trkpt>
      <trkpt lat="43.76097" lon="7.1794">
        <ele>252</ele>
        <time>2011-08-22T08:09:37Z</time>
      </trkpt>
      <trkpt lat="43.76097" lon="7.17943">
        <ele>251</ele>
        <time>2011-08-22T08:09:52Z</time>
      </trkpt>
      <trkpt lat="43.76098" lon="7.17942">
        <ele>251</ele>
        <time>2011-08-22T08:10:58Z</time>
      </trkpt>
      <trkpt lat="43.76107" lon="7.17928">
        <ele>252</ele>
        <time>2011-08-22T08:11:06Z</time>
      </trkpt>
      <trkpt lat="43.76127" lon="7.17888">
        <ele>259</ele>
        <time>2011-08-22T08:11:21Z</time>
      </trkpt>
      <trkpt lat="43.76132" lon="7.17878">
        <ele>259</ele>
        <time>2011-08-22T08:11:26Z</time>
      </trkpt>
      <trkpt lat="43.76137" lon="7.17874">
        <ele>258</ele>
        <time>2011-08-22T08:11:29Z</time>
      </trkpt>
      <trkpt lat="43.76142" lon="7.17867">
        <ele>258</ele>
        <time>2011-08-22T08:11:38Z</time>
      </trkpt>
      <trkpt lat="43.76143" lon="7.17868">
        <ele>258</ele>
        <time>2011-08-22T08:11:49Z</time>
      </trkpt>
      <trkpt lat="43.76138" lon="7.17904">
        <ele>255</ele>
        <time>2011-08-22T08:12:02Z</time>
      </trkpt>
      <trkpt lat="43.76137" lon="7.17911">
        <ele>255</ele>
        <time>2011-08-22T08:12:05Z</time>
      </trkpt>
      <trkpt lat="43.76142" lon="7.17911">
        <ele>253</ele>
        <time>2011-08-22T08:12:10Z</time>
      </trkpt>
      <trkpt lat="43.76156" lon="7.17879">
        <ele>255</ele>
        <time>2011-08-22T08:12:22Z</time>
      </trkpt>
      <trkpt lat="43.76157" lon="7.1787">
        <ele>256</ele>
        <time>2011-08-22T08:12:25Z</time>
      </trkpt>
      <trkpt lat="43.76174" lon="7.17837">
        <ele>242</ele>
        <time>2011-08-22T08:12:36Z</time>
      </trkpt>
      <trkpt lat="43.76205" lon="7.17795">
        <ele>234</ele>
        <time>2011-08-22T08:12:48Z</time>
      </trkpt>
      <trkpt lat="43.76221" lon="7.17774">
        <ele>231</ele>
        <time>2011-08-22T08:12:59Z</time>
      </trkpt>
      <trkpt lat="43.76228" lon="7.17775">
        <ele>230</ele>
        <time>2011-08-22T08:13:23Z</time>
      </trkpt>
      <trkpt lat="43.76229" lon="7.17774">
        <ele>230</ele>
        <time>2011-08-22T08:13:28Z</time>
      </trkpt>
      <trkpt lat="43.76229" lon="7.17785">
        <ele>230</ele>
        <time>2011-08-22T08:13:33Z</time>
      </trkpt>
      <trkpt lat="43.76233" lon="7.17799">
        <ele>229</ele>
        <time>2011-08-22T08:13:38Z</time>
      </trkpt>
      <trkpt lat="43.76234" lon="7.17803">
        <ele>228</ele>
        <time>2011-08-22T08:13:40Z</time>
      </trkpt>
      <trkpt lat="43.7625" lon="7.17841">
        <ele>216</ele>
        <time>2011-08-22T08:13:54Z</time>
      </trkpt>
      <trkpt lat="43.76253" lon="7.17874">
        <ele>204</ele>
        <time>2011-08-22T08:14:02Z</time>
      </trkpt>
      <trkpt lat="43.76256" lon="7.17881">
        <ele>203</ele>
        <time>2011-08-22T08:14:06Z</time>
      </trkpt>
      <trkpt lat="43.7626" lon="7.17876">
        <ele>204</ele>
        <time>2011-08-22T08:14:10Z</time>
      </trkpt>
      <trkpt lat="43.76264" lon="7.17878">
        <ele>203</ele>
        <time>2011-08-22T08:14:14Z</time>
      </trkpt>
      <trkpt lat="43.76269" lon="7.17894">
        <ele>202</ele>
        <time>2011-08-22T08:14:20Z</time>
      </trkpt>
      <trkpt lat="43.76272" lon="7.17906">
        <ele>202</ele>
        <time>2011-08-22T08:14:24Z</time>
      </trkpt>
      <trkpt lat="43.76284" lon="7.17935">
        <ele>193</ele>
        <time>2011-08-22T08:14:35Z</time>
      </trkpt>
      <trkpt lat="43.76318" lon="7.17962">
        <ele>188</ele>
        <time>2011-08-22T08:14:45Z</time>
      </trkpt>
      <trkpt lat="43.76351" lon="7.17998">
        <ele>181</ele>
        <time>2011-08-22T08:14:54Z</time>
      </trkpt>
      <trkpt lat="43.76364" lon="7.18038">
        <ele>176</ele>
        <time>2011-08-22T08:15:00Z</time>
      </trkpt>
      <trkpt lat="43.7638" lon="7.1808">
        <ele>175</ele>
        <time>2011-08-22T08:15:07Z</time>
      </trkpt>
      <trkpt lat="43.76388" lon="7.18106">
        <ele>169</ele>
        <time>2011-08-22T08:15:13Z</time>
      </trkpt>
      <trkpt lat="43.76391" lon="7.1811">
        <ele>169</ele>
        <time>2011-08-22T08:15:16Z</time>
      </trkpt>
      <trkpt lat="43.76392" lon="7.18115">
        <ele>168</ele>
        <time>2011-08-22T08:15:25Z</time>
      </trkpt>
      <trkpt lat="43.76392" lon="7.18116">
        <ele>168</ele>
        <time>2011-08-22T08:16:32Z</time>
      </trkpt>
      <trkpt lat="43.76392" lon="7.18116">
        <ele>168</ele>
        <time>2011-08-22T08:17:21Z</time>
      </trkpt>
      <trkpt lat="43.76392" lon="7.18116">
        <ele>168</ele>
        <time>2011-08-22T08:18:20Z</time>
      </trkpt>
      <trkpt lat="43.76395" lon="7.18112">
        <ele>169</ele>
        <time>2011-08-22T08:18:24Z</time>
      </trkpt>
      <trkpt lat="43.76401" lon="7.18115">
        <ele>169</ele>
        <time>2011-08-22T08:18:30Z</time>
      </trkpt>
      <trkpt lat="43.76412" lon="7.18153">
        <ele>166</ele>
        <time>2011-08-22T08:18:40Z</time>
      </trkpt>
      <trkpt lat="43.76412" lon="7.18164">
        <ele>165</ele>
        <time>2011-08-22T08:18:42Z</time>
      </trkpt>
      <trkpt lat="43.76404" lon="7.18187">
        <ele>160</ele>
        <time>2011-08-22T08:18:48Z</time>
      </trkpt>
      <trkpt lat="43.76403" lon="7.18194">
        <ele>159</ele>
        <time>2011-08-22T08:18:51Z</time>
      </trkpt>
      <trkpt lat="43.76393" lon="7.18234">
        <ele>156</ele>
        <time>2011-08-22T08:19:05Z</time>
      </trkpt>
      <trkpt lat="43.76394" lon="7.18265">
        <ele>152</ele>
        <time>2011-08-22T08:19:19Z</time>
      </trkpt>
      <trkpt lat="43.764" lon="7.18311">
        <ele>150</ele>
        <time>2011-08-22T08:19:36Z</time>
      </trkpt>
      <trkpt lat="43.76401" lon="7.18335">
        <ele>147</ele>
        <time>2011-08-22T08:19:40Z</time>
      </trkpt>
      <trkpt lat="43.76386" lon="7.1841">
        <ele>142</ele>
        <time>2011-08-22T08:19:50Z</time>
      </trkpt>
      <trkpt lat="43.76376" lon="7.1847">
        <ele>133</ele>
        <time>2011-08-22T08:19:57Z</time>
      </trkpt>
      <trkpt lat="43.76373" lon="7.18508">
        <ele>125</ele>
        <time>2011-08-22T08:20:01Z</time>
      </trkpt>
      <trkpt lat="43.76352" lon="7.18611">
        <ele>116</ele>
        <time>2011-08-22T08:20:12Z</time>
      </trkpt>
      <trkpt lat="43.76347" lon="7.18639">
        <ele>114</ele>
        <time>2011-08-22T08:20:21Z</time>
      </trkpt>
      <trkpt lat="43.76388" lon="7.18675">
        <ele>111</ele>
        <time>2011-08-22T08:20:32Z</time>
      </trkpt>
      <trkpt lat="43.76453" lon="7.18731">
        <ele>114</ele>
        <time>2011-08-22T08:20:46Z</time>
      </trkpt>
      <trkpt lat="43.76506" lon="7.18776">
        <ele>110</ele>
        <time>2011-08-22T08:20:57Z</time>
      </trkpt>
      <trkpt lat="43.7652" lon="7.18789">
        <ele>110</ele>
        <time>2011-08-22T08:21:00Z</time>
      </trkpt>
      <trkpt lat="43.76598" lon="7.18853">
        <ele>110</ele>
        <time>2011-08-22T08:21:15Z</time>
      </trkpt>
      <trkpt lat="43.76624" lon="7.18887">
        <ele>107</ele>
        <time>2011-08-22T08:21:25Z</time>
      </trkpt>
      <trkpt lat="43.76644" lon="7.18923">
        <ele>98</ele>
        <time>2011-08-22T08:21:38Z</time>
      </trkpt>
      <trkpt lat="43.76667" lon="7.19009">
        <ele>95</ele>
        <time>2011-08-22T08:21:53Z</time>
      </trkpt>
      <trkpt lat="43.76666" lon="7.19094">
        <ele>97</ele>
        <time>2011-08-22T08:22:07Z</time>
      </trkpt>
      <trkpt lat="43.76631" lon="7.19212">
        <ele>93</ele>
        <time>2011-08-22T08:22:23Z</time>
      </trkpt>
      <trkpt lat="43.7662" lon="7.19237">
        <ele>92</ele>
        <time>2011-08-22T08:22:27Z</time>
      </trkpt>
      <trkpt lat="43.76604" lon="7.19254">
        <ele>89</ele>
        <time>2011-08-22T08:22:35Z</time>
      </trkpt>
      <trkpt lat="43.76618" lon="7.193">
        <ele>89</ele>
        <time>2011-08-22T08:22:45Z</time>
      </trkpt>
      <trkpt lat="43.76671" lon="7.19418">
        <ele>85</ele>
        <time>2011-08-22T08:23:03Z</time>
      </trkpt>
      <trkpt lat="43.76675" lon="7.19433">
        <ele>86</ele>
        <time>2011-08-22T08:23:05Z</time>
      </trkpt>
      <trkpt lat="43.76683" lon="7.1959">
        <ele>81</ele>
        <time>2011-08-22T08:23:25Z</time>
      </trkpt>
      <trkpt lat="43.76677" lon="7.19637">
        <ele>81</ele>
        <time>2011-08-22T08:23:31Z</time>
      </trkpt>
      <trkpt lat="43.76676" lon="7.19679">
        <ele>78</ele>
        <time>2011-08-22T08:23:36Z</time>
      </trkpt>
      <trkpt lat="43.76691" lon="7.19751">
        <ele>72</ele>
        <time>2011-08-22T08:23:44Z</time>
      </trkpt>
      <trkpt lat="43.7673" lon="7.19831">
        <ele>71</ele>
        <time>2011-08-22T08:23:55Z</time>
      </trkpt>
      <trkpt lat="43.76737" lon="7.19851">
        <ele>69</ele>
        <time>2011-08-22T08:23:58Z</time>
      </trkpt>
      <trkpt lat="43.76722" lon="7.19883">
        <ele>67</ele>
        <time>2011-08-22T08:24:05Z</time>
      </trkpt>
      <trkpt lat="43.76707" lon="7.19856">
        <ele>67</ele>
        <time>2011-08-22T08:24:11Z</time>
      </trkpt>
      <trkpt lat="43.76708" lon="7.19848">
        <ele>67</ele>
        <time>2011-08-22T08:24:12Z</time>
      </trkpt>
      <trkpt lat="43.7671" lon="7.19832">
        <ele>70</ele>
        <time>2011-08-22T08:24:14Z</time>
      </trkpt>
      <trkpt lat="43.7669" lon="7.19817">
        <ele>69</ele>
        <time>2011-08-22T08:24:19Z</time>
      </trkpt>
      <trkpt lat="43.76677" lon="7.19845">
        <ele>65</ele>
        <time>2011-08-22T08:24:27Z</time>
      </trkpt>
      <trkpt lat="43.76679" lon="7.19849">
        <ele>65</ele>
        <time>2011-08-22T08:24:28Z</time>
      </trkpt>
      <trkpt lat="43.76695" lon="7.19907">
        <ele>66</ele>
        <time>2011-08-22T08:24:39Z</time>
      </trkpt>
      <trkpt lat="43.76695" lon="7.19942">
        <ele>65</ele>
        <time>2011-08-22T08:24:44Z</time>
      </trkpt>
      <trkpt lat="43.76689" lon="7.19965">
        <ele>65</ele>
        <time>2011-08-22T08:24:48Z</time>
      </trkpt>
      <trkpt lat="43.76651" lon="7.20031">
        <ele>64</ele>
        <time>2011-08-22T08:25:04Z</time>
      </trkpt>
      <trkpt lat="43.76627" lon="7.20062">
        <ele>64</ele>
        <time>2011-08-22T08:25:13Z</time>
      </trkpt>
      <trkpt lat="43.7661" lon="7.20082">
        <ele>63</ele>
        <time>2011-08-22T08:25:18Z</time>
      </trkpt>
      <trkpt lat="43.76591" lon="7.20131">
        <ele>63</ele>
        <time>2011-08-22T08:25:27Z</time>
      </trkpt>
      <trkpt lat="43.76591" lon="7.20149">
        <ele>63</ele>
        <time>2011-08-22T08:25:31Z</time>
      </trkpt>
      <trkpt lat="43.7658" lon="7.20175">
        <ele>63</ele>
        <time>2011-08-22T08:25:37Z</time>
      </trkpt>
      <trkpt lat="43.76575" lon="7.20181">
        <ele>63</ele>
        <time>2011-08-22T08:25:41Z</time>
      </trkpt>
      <trkpt lat="43.76574" lon="7.20191">
        <ele>63</ele>
        <time>2011-08-22T08:25:45Z</time>
      </trkpt>
      <trkpt lat="43.76551" lon="7.20237">
        <ele>62</ele>
        <time>2011-08-22T08:25:58Z</time>
      </trkpt>
      <trkpt lat="43.76518" lon="7.20297">
        <ele>62</ele>
        <time>2011-08-22T08:26:11Z</time>
      </trkpt>
      <trkpt lat="43.7649" lon="7.20349">
        <ele>60</ele>
        <time>2011-08-22T08:26:23Z</time>
      </trkpt>
      <trkpt lat="43.76473" lon="7.20379">
        <ele>59</ele>
        <time>2011-08-22T08:26:30Z</time>
      </trkpt>
      <trkpt lat="43.76426" lon="7.20465">
        <ele>61</ele>
        <time>2011-08-22T08:26:49Z</time>
      </trkpt>
      <trkpt lat="43.76415" lon="7.20485">
        <ele>62</ele>
        <time>2011-08-22T08:26:54Z</time>
      </trkpt>
      <trkpt lat="43.76404" lon="7.20481">
        <ele>62</ele>
        <time>2011-08-22T08:27:00Z</time>
      </trkpt>
      <trkpt lat="43.76397" lon="7.20466">
        <ele>61</ele>
        <time>2011-08-22T08:27:05Z</time>
      </trkpt>
      <trkpt lat="43.76339" lon="7.20396">
        <ele>59</ele>
        <time>2011-08-22T08:27:18Z</time>
      </trkpt>
      <trkpt lat="43.76247" lon="7.20294">
        <ele>60</ele>
        <time>2011-08-22T08:27:36Z</time>
      </trkpt>
      <trkpt lat="43.76132" lon="7.20181">
        <ele>60</ele>
        <time>2011-08-22T08:27:56Z</time>
      </trkpt>
      <trkpt lat="43.75998" lon="7.20051">
        <ele>61</ele>
        <time>2011-08-22T08:28:19Z</time>
      </trkpt>
      <trkpt lat="43.75919" lon="7.1998">
        <ele>59</ele>
        <time>2011-08-22T08:28:33Z</time>
      </trkpt>
      <trkpt lat="43.75843" lon="7.19906">
        <ele>59</ele>
        <time>2011-08-22T08:28:47Z</time>
      </trkpt>
      <trkpt lat="43.75736" lon="7.19802">
        <ele>57</ele>
        <time>2011-08-22T08:29:07Z</time>
      </trkpt>
      <trkpt lat="43.75679" lon="7.19741">
        <ele>55</ele>
        <time>2011-08-22T08:29:20Z</time>
      </trkpt>
      <trkpt lat="43.75653" lon="7.19728">
        <ele>55</ele>
        <time>2011-08-22T08:29:25Z</time>
      </trkpt>
      <trkpt lat="43.75578" lon="7.19643">
        <ele>54</ele>
        <time>2011-08-22T08:29:39Z</time>
      </trkpt>
      <trkpt lat="43.75459" lon="7.19513">
        <ele>55</ele>
        <time>2011-08-22T08:30:01Z</time>
      </trkpt>
      <trkpt lat="43.75367" lon="7.19413">
        <ele>54</ele>
        <time>2011-08-22T08:30:20Z</time>
      </trkpt>
      <trkpt lat="43.75299" lon="7.19353">
        <ele>54</ele>
        <time>2011-08-22T08:30:34Z</time>
      </trkpt>
      <trkpt lat="43.7525" lon="7.19304">
        <ele>53</ele>
        <time>2011-08-22T08:30:48Z</time>
      </trkpt>
      <trkpt lat="43.75199" lon="7.19252">
        <ele>53</ele>
        <time>2011-08-22T08:31:07Z</time>
      </trkpt>
      <trkpt lat="43.75153" lon="7.19206">
        <ele>53</ele>
        <time>2011-08-22T08:31:24Z</time>
      </trkpt>
      <trkpt lat="43.75105" lon="7.19157">
        <ele>53</ele>
        <time>2011-08-22T08:31:43Z</time>
      </trkpt>
      <trkpt lat="43.75045" lon="7.19093">
        <ele>52</ele>
        <time>2011-08-22T08:32:00Z</time>
      </trkpt>
      <trkpt lat="43.74955" lon="7.19001">
        <ele>52</ele>
        <time>2011-08-22T08:32:17Z</time>
      </trkpt>
      <trkpt lat="43.7493" lon="7.18983">
        <ele>51</ele>
        <time>2011-08-22T08:32:22Z</time>
      </trkpt>
      <trkpt lat="43.74873" lon="7.18915">
        <ele>49</ele>
        <time>2011-08-22T08:32:32Z</time>
      </trkpt>
      <trkpt lat="43.74752" lon="7.18784">
        <ele>50</ele>
        <time>2011-08-22T08:32:54Z</time>
      </trkpt>
      <trkpt lat="43.7465" lon="7.1867">
        <ele>48</ele>
        <time>2011-08-22T08:33:13Z</time>
      </trkpt>
      <trkpt lat="43.74549" lon="7.18588">
        <ele>48</ele>
        <time>2011-08-22T08:33:30Z</time>
      </trkpt>
      <trkpt lat="43.74437" lon="7.18545">
        <ele>49</ele>
        <time>2011-08-22T08:33:46Z</time>
      </trkpt>
      <trkpt lat="43.74272" lon="7.18484">
        <ele>47</ele>
        <time>2011-08-22T08:34:10Z</time>
      </trkpt>
      <trkpt lat="43.74159" lon="7.18433">
        <ele>43</ele>
        <time>2011-08-22T08:34:26Z</time>
      </trkpt>
      <trkpt lat="43.74044" lon="7.18407">
        <ele>41</ele>
        <time>2011-08-22T08:34:41Z</time>
      </trkpt>
      <trkpt lat="43.73911" lon="7.18378">
        <ele>43</ele>
        <time>2011-08-22T08:34:58Z</time>
      </trkpt>
      <trkpt lat="43.73805" lon="7.18363">
        <ele>41</ele>
        <time>2011-08-22T08:35:12Z</time>
      </trkpt>
      <trkpt lat="43.73702" lon="7.18365">
        <ele>40</ele>
        <time>2011-08-22T08:35:25Z</time>
      </trkpt>
      <trkpt lat="43.73579" lon="7.18367">
        <ele>37</ele>
        <time>2011-08-22T08:35:42Z</time>
      </trkpt>
      <trkpt lat="43.73434" lon="7.18384">
        <ele>37</ele>
        <time>2011-08-22T08:36:00Z</time>
      </trkpt>
      <trkpt lat="43.73279" lon="7.18418">
        <ele>38</ele>
        <time>2011-08-22T08:36:22Z</time>
      </trkpt>
      <trkpt lat="43.73203" lon="7.18429">
        <ele>36</ele>
        <time>2011-08-22T08:36:36Z</time>
      </trkpt>
      <trkpt lat="43.73103" lon="7.18427">
        <ele>36</ele>
        <time>2011-08-22T08:36:51Z</time>
      </trkpt>
      <trkpt lat="43.7307" lon="7.18434">
        <ele>35</ele>
        <time>2011-08-22T08:36:56Z</time>
      </trkpt>
      <trkpt lat="43.7295" lon="7.18468">
        <ele>34</ele>
        <time>2011-08-22T08:37:13Z</time>
      </trkpt>
      <trkpt lat="43.72803" lon="7.18489">
        <ele>33</ele>
        <time>2011-08-22T08:37:34Z</time>
      </trkpt>
      <trkpt lat="43.72656" lon="7.18506">
        <ele>32</ele>
        <time>2011-08-22T08:37:55Z</time>
      </trkpt>
      <trkpt lat="43.72548" lon="7.18524">
        <ele>32</ele>
        <time>2011-08-22T08:38:11Z</time>
      </trkpt>
      <trkpt lat="43.72484" lon="7.18534">
        <ele>31</ele>
        <time>2011-08-22T08:38:20Z</time>
      </trkpt>
      <trkpt lat="43.72451" lon="7.18532">
        <ele>32</ele>
        <time>2011-08-22T08:38:24Z</time>
      </trkpt>
      <trkpt lat="43.72345" lon="7.18545">
        <ele>32</ele>
        <time>2011-08-22T08:38:38Z</time>
      </trkpt>
      <trkpt lat="43.72249" lon="7.18562">
        <ele>31</ele>
        <time>2011-08-22T08:38:54Z</time>
      </trkpt>
      <trkpt lat="43.72166" lon="7.18569">
        <ele>29</ele>
        <time>2011-08-22T08:39:07Z</time>
      </trkpt>
      <trkpt lat="43.72048" lon="7.18588">
        <ele>29</ele>
        <time>2011-08-22T08:39:23Z</time>
      </trkpt>
      <trkpt lat="43.71979" lon="7.18604">
        <ele>28</ele>
        <time>2011-08-22T08:39:34Z</time>
      </trkpt>
      <trkpt lat="43.71874" lon="7.18618">
        <ele>28</ele>
        <time>2011-08-22T08:39:54Z</time>
      </trkpt>
      <trkpt lat="43.71794" lon="7.18625">
        <ele>29</ele>
        <time>2011-08-22T08:40:07Z</time>
      </trkpt>
      <trkpt lat="43.71663" lon="7.18638">
        <ele>27</ele>
        <time>2011-08-22T08:40:25Z</time>
      </trkpt>
      <trkpt lat="43.71541" lon="7.1866">
        <ele>25</ele>
        <time>2011-08-22T08:40:42Z</time>
      </trkpt>
      <trkpt lat="43.71412" lon="7.18678">
        <ele>25</ele>
        <time>2011-08-22T08:41:00Z</time>
      </trkpt>
      <trkpt lat="43.71295" lon="7.18695">
        <ele>26</ele>
        <time>2011-08-22T08:41:17Z</time>
      </trkpt>
      <trkpt lat="43.71269" lon="7.18698">
        <ele>26</ele>
        <time>2011-08-22T08:41:21Z</time>
      </trkpt>
      <trkpt lat="43.7117" lon="7.18696">
        <ele>24</ele>
        <time>2011-08-22T08:41:35Z</time>
      </trkpt>
      <trkpt lat="43.71018" lon="7.18709">
        <ele>25</ele>
        <time>2011-08-22T08:41:57Z</time>
      </trkpt>
      <trkpt lat="43.70966" lon="7.18714">
        <ele>25</ele>
        <time>2011-08-22T08:42:05Z</time>
      </trkpt>
      <trkpt lat="43.70935" lon="7.18731">
        <ele>25</ele>
        <time>2011-08-22T08:42:10Z</time>
      </trkpt>
      <trkpt lat="43.70911" lon="7.18738">
        <ele>25</ele>
        <time>2011-08-22T08:42:14Z</time>
      </trkpt>
      <trkpt lat="43.70803" lon="7.18743">
        <ele>22</ele>
        <time>2011-08-22T08:42:31Z</time>
      </trkpt>
      <trkpt lat="43.70726" lon="7.18747">
        <ele>20</ele>
        <time>2011-08-22T08:42:44Z</time>
      </trkpt>
      <trkpt lat="43.70604" lon="7.18762">
        <ele>22</ele>
        <time>2011-08-22T08:43:03Z</time>
      </trkpt>
      <trkpt lat="43.70483" lon="7.18767">
        <ele>22</ele>
        <time>2011-08-22T08:43:20Z</time>
      </trkpt>
      <trkpt lat="43.70363" lon="7.18768">
        <ele>22</ele>
        <time>2011-08-22T08:43:37Z</time>
      </trkpt>
      <trkpt lat="43.70202" lon="7.1877">
        <ele>21</ele>
        <time>2011-08-22T08:44:01Z</time>
      </trkpt>
      <trkpt lat="43.70115" lon="7.18757">
        <ele>21</ele>
        <time>2011-08-22T08:44:15Z</time>
      </trkpt>
      <trkpt lat="43.70006" lon="7.18767">
        <ele>21</ele>
        <time>2011-08-22T08:44:33Z</time>
      </trkpt>
      <trkpt lat="43.69868" lon="7.18792">
        <ele>22</ele>
        <time>2011-08-22T08:44:55Z</time>
      </trkpt>
      <trkpt lat="43.69816" lon="7.18802">
        <ele>21</ele>
        <time>2011-08-22T08:45:03Z</time>
      </trkpt>
      <trkpt lat="43.69786" lon="7.1879">
        <ele>20</ele>
        <time>2011-08-22T08:45:08Z</time>
      </trkpt>
      <trkpt lat="43.69712" lon="7.18792">
        <ele>19</ele>
        <time>2011-08-22T08:45:20Z</time>
      </trkpt>
      <trkpt lat="43.69678" lon="7.1879">
        <ele>19</ele>
        <time>2011-08-22T08:45:25Z</time>
      </trkpt>
      <trkpt lat="43.69646" lon="7.18801">
        <ele>19</ele>
        <time>2011-08-22T08:45:30Z</time>
      </trkpt>
      <trkpt lat="43.69629" lon="7.18816">
        <ele>19</ele>
        <time>2011-08-22T08:45:33Z</time>
      </trkpt>
      <trkpt lat="43.69591" lon="7.18833">
        <ele>20</ele>
        <time>2011-08-22T08:45:40Z</time>
      </trkpt>
      <trkpt lat="43.69578" lon="7.18839">
        <ele>21</ele>
        <time>2011-08-22T08:45:43Z</time>
      </trkpt>
      <trkpt lat="43.69483" lon="7.18862">
        <ele>19</ele>
        <time>2011-08-22T08:46:00Z</time>
      </trkpt>
      <trkpt lat="43.69372" lon="7.1888">
        <ele>17</ele>
        <time>2011-08-22T08:46:15Z</time>
      </trkpt>
      <trkpt lat="43.69208" lon="7.18908">
        <ele>14</ele>
        <time>2011-08-22T08:46:38Z</time>
      </trkpt>
      <trkpt lat="43.69038" lon="7.18943">
        <ele>15</ele>
        <time>2011-08-22T08:47:02Z</time>
      </trkpt>
      <trkpt lat="43.6885" lon="7.18989">
        <ele>15</ele>
        <time>2011-08-22T08:47:28Z</time>
      </trkpt>
      <trkpt lat="43.68674" lon="7.19042">
        <ele>15</ele>
        <time>2011-08-22T08:47:53Z</time>
      </trkpt>
      <trkpt lat="43.68495" lon="7.19105">
        <ele>15</ele>
        <time>2011-08-22T08:48:18Z</time>
      </trkpt>
      <trkpt lat="43.68343" lon="7.19167">
        <ele>13</ele>
        <time>2011-08-22T08:48:40Z</time>
      </trkpt>
      <trkpt lat="43.68171" lon="7.19239">
        <ele>14</ele>
        <time>2011-08-22T08:49:05Z</time>
      </trkpt>
      <trkpt lat="43.68004" lon="7.19305">
        <ele>12</ele>
        <time>2011-08-22T08:49:29Z</time>
      </trkpt>
      <trkpt lat="43.67928" lon="7.19338">
        <ele>12</ele>
        <time>2011-08-22T08:49:41Z</time>
      </trkpt>
      <trkpt lat="43.67798" lon="7.19399">
        <ele>9</ele>
        <time>2011-08-22T08:50:01Z</time>
      </trkpt>
      <trkpt lat="43.67678" lon="7.19454">
        <ele>9</ele>
        <time>2011-08-22T08:50:19Z</time>
      </trkpt>
      <trkpt lat="43.67504" lon="7.19536">
        <ele>9</ele>
        <time>2011-08-22T08:50:43Z</time>
      </trkpt>
      <trkpt lat="43.67448" lon="7.19565">
        <ele>9</ele>
        <time>2011-08-22T08:50:53Z</time>
      </trkpt>
      <trkpt lat="43.67419" lon="7.19572">
        <ele>10</ele>
        <time>2011-08-22T08:50:58Z</time>
      </trkpt>
      <trkpt lat="43.67383" lon="7.19604">
        <ele>12</ele>
        <time>2011-08-22T08:51:05Z</time>
      </trkpt>
      <trkpt lat="43.67306" lon="7.19647">
        <ele>12</ele>
        <time>2011-08-22T08:51:19Z</time>
      </trkpt>
      <trkpt lat="43.67278" lon="7.19655">
        <ele>11</ele>
        <time>2011-08-22T08:51:25Z</time>
      </trkpt>
      <trkpt lat="43.67147" lon="7.19718">
        <ele>9</ele>
        <time>2011-08-22T08:51:45Z</time>
      </trkpt>
      <trkpt lat="43.67001" lon="7.19769">
        <ele>9</ele>
        <time>2011-08-22T08:52:07Z</time>
      </trkpt>
      <trkpt lat="43.66873" lon="7.19815">
        <ele>11</ele>
        <time>2011-08-22T08:52:26Z</time>
      </trkpt>
      <trkpt lat="43.66785" lon="7.19845">
        <ele>10</ele>
        <time>2011-08-22T08:52:39Z</time>
      </trkpt>
      <trkpt lat="43.66634" lon="7.199">
        <ele>7</ele>
        <time>2011-08-22T08:53:01Z</time>
      </trkpt>
      <trkpt lat="43.66543" lon="7.19943">
        <ele>8</ele>
        <time>2011-08-22T08:53:17Z</time>
      </trkpt>
      <trkpt lat="43.66507" lon="7.19965">
        <ele>8</ele>
        <time>2011-08-22T08:53:25Z</time>
      </trkpt>
      <trkpt lat="43.66485" lon="7.19971">
        <ele>8</ele>
        <time>2011-08-22T08:53:30Z</time>
      </trkpt>
      <trkpt lat="43.66462" lon="7.19989">
        <ele>8</ele>
        <time>2011-08-22T08:53:35Z</time>
      </trkpt>
      <trkpt lat="43.66447" lon="7.20012">
        <ele>8</ele>
        <time>2011-08-22T08:53:39Z</time>
      </trkpt>
      <trkpt lat="43.66432" lon="7.20024">
        <ele>8</ele>
        <time>2011-08-22T08:53:42Z</time>
      </trkpt>
      <trkpt lat="43.66383" lon="7.20045">
        <ele>7</ele>
        <time>2011-08-22T08:53:51Z</time>
      </trkpt>
      <trkpt lat="43.66354" lon="7.20056">
        <ele>7</ele>
        <time>2011-08-22T08:54:02Z</time>
      </trkpt>
      <trkpt lat="43.66353" lon="7.20059">
        <ele>7</ele>
        <time>2011-08-22T08:54:24Z</time>
      </trkpt>
      <trkpt lat="43.66331" lon="7.2007">
        <ele>6</ele>
        <time>2011-08-22T08:54:35Z</time>
      </trkpt>
      <trkpt lat="43.66316" lon="7.20079">
        <ele>6</ele>
        <time>2011-08-22T08:54:42Z</time>
      </trkpt>
      <trkpt lat="43.66271" lon="7.20096">
        <ele>6</ele>
        <time>2011-08-22T08:54:54Z</time>
      </trkpt>
      <trkpt lat="43.66237" lon="7.20113">
        <ele>5</ele>
        <time>2011-08-22T08:55:01Z</time>
      </trkpt>
      <trkpt lat="43.6623" lon="7.2012">
        <ele>5</ele>
        <time>2011-08-22T08:55:03Z</time>
      </trkpt>
      <trkpt lat="43.66218" lon="7.20148">
        <ele>5</ele>
        <time>2011-08-22T08:55:08Z</time>
      </trkpt>
      <trkpt lat="43.66216" lon="7.20238">
        <ele>6</ele>
        <time>2011-08-22T08:55:21Z</time>
      </trkpt>
      <trkpt lat="43.66217" lon="7.20268">
        <ele>7</ele>
        <time>2011-08-22T08:55:27Z</time>
      </trkpt>
      <trkpt lat="43.66234" lon="7.20287">
        <ele>7</ele>
        <time>2011-08-22T08:55:34Z</time>
      </trkpt>
      <trkpt lat="43.66241" lon="7.2029">
        <ele>7</ele>
        <time>2011-08-22T08:55:37Z</time>
      </trkpt>
      <trkpt lat="43.66242" lon="7.20299">
        <ele>7</ele>
        <time>2011-08-22T08:55:42Z</time>
      </trkpt>
      <trkpt lat="43.66244" lon="7.2031">
        <ele>7</ele>
        <time>2011-08-22T08:55:46Z</time>
      </trkpt>
      <trkpt lat="43.66259" lon="7.20309">
        <ele>7</ele>
        <time>2011-08-22T08:55:52Z</time>
      </trkpt>
      <trkpt lat="43.66351" lon="7.20288">
        <ele>7</ele>
        <time>2011-08-22T08:56:10Z</time>
      </trkpt>
      <trkpt lat="43.66378" lon="7.20285">
        <ele>7</ele>
        <time>2011-08-22T08:56:16Z</time>
      </trkpt>
      <trkpt lat="43.66423" lon="7.20301">
        <ele>8</ele>
        <time>2011-08-22T08:56:28Z</time>
      </trkpt>
      <trkpt lat="43.66432" lon="7.20309">
        <ele>8</ele>
        <time>2011-08-22T08:56:31Z</time>
      </trkpt>
      <trkpt lat="43.66446" lon="7.20359">
        <ele>8</ele>
        <time>2011-08-22T08:56:42Z</time>
      </trkpt>
      <trkpt lat="43.66474" lon="7.20372">
        <ele>8</ele>
        <time>2011-08-22T08:56:49Z</time>
      </trkpt>
      <trkpt lat="43.66484" lon="7.20356">
        <ele>8</ele>
        <time>2011-08-22T08:56:52Z</time>
      </trkpt>
      <trkpt lat="43.66519" lon="7.20351">
        <ele>10</ele>
        <time>2011-08-22T08:57:00Z</time>
      </trkpt>
      <trkpt lat="43.66525" lon="7.20365">
        <ele>10</ele>
        <time>2011-08-22T08:57:03Z</time>
      </trkpt>
      <trkpt lat="43.6654" lon="7.20474">
        <ele>10</ele>
        <time>2011-08-22T08:57:19Z</time>
      </trkpt>
      <trkpt lat="43.6654" lon="7.20583">
        <ele>8</ele>
        <time>2011-08-22T08:57:31Z</time>
      </trkpt>
      <trkpt lat="43.66539" lon="7.20655">
        <ele>8</ele>
        <time>2011-08-22T08:57:38Z</time>
      </trkpt>
      <trkpt lat="43.66538" lon="7.20705">
        <ele>7</ele>
        <time>2011-08-22T08:57:44Z</time>
      </trkpt>
      <trkpt lat="43.66567" lon="7.20813">
        <ele>7</ele>
        <time>2011-08-22T08:58:00Z</time>
      </trkpt>
      <trkpt lat="43.66593" lon="7.20924">
        <ele>8</ele>
        <time>2011-08-22T08:58:17Z</time>
      </trkpt>
      <trkpt lat="43.66614" lon="7.211">
        <ele>7</ele>
        <time>2011-08-22T08:58:42Z</time>
      </trkpt>
      <trkpt lat="43.66635" lon="7.21272">
        <ele>9</ele>
        <time>2011-08-22T08:59:05Z</time>
      </trkpt>
      <trkpt lat="43.6665" lon="7.21399">
        <ele>10</ele>
        <time>2011-08-22T08:59:21Z</time>
      </trkpt>
      <trkpt lat="43.66664" lon="7.21523">
        <ele>9</ele>
        <time>2011-08-22T08:59:37Z</time>
      </trkpt>
      <trkpt lat="43.66658" lon="7.21544">
        <ele>9</ele>
        <time>2011-08-22T08:59:42Z</time>
      </trkpt>
      <trkpt lat="43.6666" lon="7.21569">
        <ele>8</ele>
        <time>2011-08-22T08:59:47Z</time>
      </trkpt>
      <trkpt lat="43.66672" lon="7.21652">
        <ele>7</ele>
        <time>2011-08-22T08:59:59Z</time>
      </trkpt>
      <trkpt lat="43.66704" lon="7.21797">
        <ele>4</ele>
        <time>2011-08-22T09:00:18Z</time>
      </trkpt>
      <trkpt lat="43.66765" lon="7.21965">
        <ele>5</ele>
        <time>2011-08-22T09:00:42Z</time>
      </trkpt>
      <trkpt lat="43.66825" lon="7.22067">
        <ele>6</ele>
        <time>2011-08-22T09:01:00Z</time>
      </trkpt>
      <trkpt lat="43.66921" lon="7.222">
        <ele>8</ele>
        <time>2011-08-22T09:01:25Z</time>
      </trkpt>
      <trkpt lat="43.66972" lon="7.2227">
        <ele>10</ele>
        <time>2011-08-22T09:01:38Z</time>
      </trkpt>
      <trkpt lat="43.67053" lon="7.2238">
        <ele>10</ele>
        <time>2011-08-22T09:01:59Z</time>
      </trkpt>
      <trkpt lat="43.67139" lon="7.225">
        <ele>7</ele>
        <time>2011-08-22T09:02:22Z</time>
      </trkpt>
      <trkpt lat="43.67235" lon="7.22608">
        <ele>8</ele>
        <time>2011-08-22T09:02:44Z</time>
      </trkpt>
      <trkpt lat="43.67332" lon="7.2269">
        <ele>8</ele>
        <time>2011-08-22T09:03:05Z</time>
      </trkpt>
      <trkpt lat="43.67385" lon="7.22727">
        <ele>7</ele>
        <time>2011-08-22T09:03:15Z</time>
      </trkpt>
      <trkpt lat="43.67399" lon="7.22736">
        <ele>7</ele>
        <time>2011-08-22T09:03:18Z</time>
      </trkpt>
      <trkpt lat="43.67408" lon="7.22761">
        <ele>6</ele>
        <time>2011-08-22T09:03:23Z</time>
      </trkpt>
      <trkpt lat="43.6747" lon="7.22792">
        <ele>6</ele>
        <time>2011-08-22T09:03:37Z</time>
      </trkpt>
      <trkpt lat="43.67536" lon="7.22834">
        <ele>5</ele>
        <time>2011-08-22T09:03:51Z</time>
      </trkpt>
      <trkpt lat="43.67612" lon="7.22879">
        <ele>6</ele>
        <time>2011-08-22T09:04:08Z</time>
      </trkpt>
      <trkpt lat="43.67623" lon="7.22896">
        <ele>6</ele>
        <time>2011-08-22T09:04:12Z</time>
      </trkpt>
      <trkpt lat="43.67688" lon="7.22933">
        <ele>6</ele>
        <time>2011-08-22T09:04:26Z</time>
      </trkpt>
      <trkpt lat="43.6771" lon="7.22942">
        <ele>7</ele>
        <time>2011-08-22T09:04:31Z</time>
      </trkpt>
      <trkpt lat="43.67727" lon="7.22951">
        <ele>7</ele>
        <time>2011-08-22T09:04:35Z</time>
      </trkpt>
      <trkpt lat="43.67733" lon="7.22959">
        <ele>7</ele>
        <time>2011-08-22T09:04:37Z</time>
      </trkpt>
      <trkpt lat="43.67746" lon="7.22967">
        <ele>7</ele>
        <time>2011-08-22T09:04:40Z</time>
      </trkpt>
      <trkpt lat="43.67767" lon="7.22987">
        <ele>7</ele>
        <time>2011-08-22T09:04:45Z</time>
      </trkpt>
      <trkpt lat="43.67774" lon="7.22996">
        <ele>7</ele>
        <time>2011-08-22T09:04:47Z</time>
      </trkpt>
      <trkpt lat="43.67794" lon="7.22992">
        <ele>8</ele>
        <time>2011-08-22T09:04:52Z</time>
      </trkpt>
      <trkpt lat="43.678" lon="7.22982">
        <ele>8</ele>
        <time>2011-08-22T09:04:54Z</time>
      </trkpt>
      <trkpt lat="43.6781" lon="7.22977">
        <ele>8</ele>
        <time>2011-08-22T09:04:57Z</time>
      </trkpt>
      <trkpt lat="43.67818" lon="7.22973">
        <ele>9</ele>
        <time>2011-08-22T09:05:00Z</time>
      </trkpt>
      <trkpt lat="43.67856" lon="7.22996">
        <ele>10</ele>
        <time>2011-08-22T09:05:12Z</time>
      </trkpt>
      <trkpt lat="43.67918" lon="7.23039">
        <ele>9</ele>
        <time>2011-08-22T09:05:29Z</time>
      </trkpt>
      <trkpt lat="43.67967" lon="7.23081">
        <ele>9</ele>
        <time>2011-08-22T09:05:44Z</time>
      </trkpt>
      <trkpt lat="43.67979" lon="7.2309">
        <ele>7</ele>
        <time>2011-08-22T09:05:47Z</time>
      </trkpt>
      <trkpt lat="43.67994" lon="7.23098">
        <ele>7</ele>
        <time>2011-08-22T09:05:51Z</time>
      </trkpt>
      <trkpt lat="43.68064" lon="7.23156">
        <ele>8</ele>
        <time>2011-08-22T09:06:10Z</time>
      </trkpt>
      <trkpt lat="43.68172" lon="7.23267">
        <ele>8</ele>
        <time>2011-08-22T09:06:38Z</time>
      </trkpt>
      <trkpt lat="43.68267" lon="7.2337">
        <ele>9</ele>
        <time>2011-08-22T09:07:01Z</time>
      </trkpt>
      <trkpt lat="43.68375" lon="7.23489">
        <ele>11</ele>
        <time>2011-08-22T09:07:27Z</time>
      </trkpt>
      <trkpt lat="43.68453" lon="7.23575">
        <ele>8</ele>
        <time>2011-08-22T09:07:47Z</time>
      </trkpt>
      <trkpt lat="43.68465" lon="7.23592">
        <ele>7</ele>
        <time>2011-08-22T09:07:51Z</time>
      </trkpt>
      <trkpt lat="43.68465" lon="7.23598">
        <ele>7</ele>
        <time>2011-08-22T09:08:01Z</time>
      </trkpt>
      <trkpt lat="43.68465" lon="7.23598">
        <ele>7</ele>
        <time>2011-08-22T09:08:24Z</time>
      </trkpt>
      <trkpt lat="43.68498" lon="7.23623">
        <ele>6</ele>
        <time>2011-08-22T09:08:38Z</time>
      </trkpt>
      <trkpt lat="43.68534" lon="7.23661">
        <ele>7</ele>
        <time>2011-08-22T09:08:49Z</time>
      </trkpt>
      <trkpt lat="43.68546" lon="7.23673">
        <ele>7</ele>
        <time>2011-08-22T09:08:52Z</time>
      </trkpt>
      <trkpt lat="43.68641" lon="7.23791">
        <ele>11</ele>
        <time>2011-08-22T09:09:18Z</time>
      </trkpt>
      <trkpt lat="43.6866" lon="7.23819">
        <ele>13</ele>
        <time>2011-08-22T09:09:29Z</time>
      </trkpt>
      <trkpt lat="43.68688" lon="7.23862">
        <ele>13</ele>
        <time>2011-08-22T09:09:41Z</time>
      </trkpt>
      <trkpt lat="43.68699" lon="7.23874">
        <ele>12</ele>
        <time>2011-08-22T09:09:45Z</time>
      </trkpt>
      <trkpt lat="43.68765" lon="7.23981">
        <ele>11</ele>
        <time>2011-08-22T09:10:06Z</time>
      </trkpt>
      <trkpt lat="43.68814" lon="7.24068">
        <ele>12</ele>
        <time>2011-08-22T09:10:24Z</time>
      </trkpt>
      <trkpt lat="43.68842" lon="7.24129">
        <ele>14</ele>
        <time>2011-08-22T09:10:39Z</time>
      </trkpt>
      <trkpt lat="43.6889" lon="7.24215">
        <ele>11</ele>
        <time>2011-08-22T09:10:55Z</time>
      </trkpt>
      <trkpt lat="43.68954" lon="7.24336">
        <ele>11</ele>
        <time>2011-08-22T09:11:16Z</time>
      </trkpt>
      <trkpt lat="43.69015" lon="7.24474">
        <ele>11</ele>
        <time>2011-08-22T09:11:39Z</time>
      </trkpt>
      <trkpt lat="43.6906" lon="7.24592">
        <ele>9</ele>
        <time>2011-08-22T09:11:59Z</time>
      </trkpt>
      <trkpt lat="43.69104" lon="7.24719">
        <ele>9</ele>
        <time>2011-08-22T09:12:19Z</time>
      </trkpt>
      <trkpt lat="43.69162" lon="7.24885">
        <ele>8</ele>
        <time>2011-08-22T09:12:44Z</time>
      </trkpt>
      <trkpt lat="43.692" lon="7.25007">
        <ele>8</ele>
        <time>2011-08-22T09:13:04Z</time>
      </trkpt>
      <trkpt lat="43.69215" lon="7.25051">
        <ele>9</ele>
        <time>2011-08-22T09:13:11Z</time>
      </trkpt>
      <trkpt lat="43.69262" lon="7.25177">
        <ele>8</ele>
        <time>2011-08-22T09:13:31Z</time>
      </trkpt>
      <trkpt lat="43.69267" lon="7.25195">
        <ele>9</ele>
        <time>2011-08-22T09:13:34Z</time>
      </trkpt>
      <trkpt lat="43.69299" lon="7.25334">
        <ele>7</ele>
        <time>2011-08-22T09:13:56Z</time>
      </trkpt>
      <trkpt lat="43.69301" lon="7.25346">
        <ele>7</ele>
        <time>2011-08-22T09:13:58Z</time>
      </trkpt>
      <trkpt lat="43.69329" lon="7.25463">
        <ele>10</ele>
        <time>2011-08-22T09:14:16Z</time>
      </trkpt>
      <trkpt lat="43.69361" lon="7.25616">
        <ele>8</ele>
        <time>2011-08-22T09:14:39Z</time>
      </trkpt>
      <trkpt lat="43.69388" lon="7.25736">
        <ele>12</ele>
        <time>2011-08-22T09:14:58Z</time>
      </trkpt>
      <trkpt lat="43.69398" lon="7.25768">
        <ele>13</ele>
        <time>2011-08-22T09:15:08Z</time>
      </trkpt>
      <trkpt lat="43.69398" lon="7.25767">
        <ele>13</ele>
        <time>2011-08-22T09:15:33Z</time>
      </trkpt>
      <trkpt lat="43.69405" lon="7.2581">
        <ele>10</ele>
        <time>2011-08-22T09:15:45Z</time>
      </trkpt>
      <trkpt lat="43.69412" lon="7.25838">
        <ele>9</ele>
        <time>2011-08-22T09:15:51Z</time>
      </trkpt>
      <trkpt lat="43.69422" lon="7.25891">
        <ele>8</ele>
        <time>2011-08-22T09:16:02Z</time>
      </trkpt>
      <trkpt lat="43.69432" lon="7.2596">
        <ele>7</ele>
        <time>2011-08-22T09:16:13Z</time>
      </trkpt>
      <trkpt lat="43.69434" lon="7.25975">
        <ele>7</ele>
        <time>2011-08-22T09:16:15Z</time>
      </trkpt>
      <trkpt lat="43.69442" lon="7.26022">
        <ele>7</ele>
        <time>2011-08-22T09:16:22Z</time>
      </trkpt>
      <trkpt lat="43.69444" lon="7.26044">
        <ele>7</ele>
        <time>2011-08-22T09:16:25Z</time>
      </trkpt>
      <trkpt lat="43.69456" lon="7.26151">
        <ele>10</ele>
        <time>2011-08-22T09:16:42Z</time>
      </trkpt>
      <trkpt lat="43.6946" lon="7.2621">
        <ele>13</ele>
        <time>2011-08-22T09:16:55Z</time>
      </trkpt>
      <trkpt lat="43.69464" lon="7.26259">
        <ele>12</ele>
        <time>2011-08-22T09:17:04Z</time>
      </trkpt>
      <trkpt lat="43.69472" lon="7.2637">
        <ele>10</ele>
        <time>2011-08-22T09:17:19Z</time>
      </trkpt>
      <trkpt lat="43.69476" lon="7.26383">
        <ele>10</ele>
        <time>2011-08-22T09:17:23Z</time>
      </trkpt>
      <trkpt lat="43.69478" lon="7.26397">
        <ele>10</ele>
        <time>2011-08-22T09:17:26Z</time>
      </trkpt>
      <trkpt lat="43.69479" lon="7.2653">
        <ele>10</ele>
        <time>2011-08-22T09:17:42Z</time>
      </trkpt>
      <trkpt lat="43.6948" lon="7.26549">
        <ele>10</ele>
        <time>2011-08-22T09:17:47Z</time>
      </trkpt>
      <trkpt lat="43.69483" lon="7.26628">
        <ele>9</ele>
        <time>2011-08-22T09:18:02Z</time>
      </trkpt>
      <trkpt lat="43.69483" lon="7.26698">
        <ele>7</ele>
        <time>2011-08-22T09:18:17Z</time>
      </trkpt>
      <trkpt lat="43.69488" lon="7.26781">
        <ele>5</ele>
        <time>2011-08-22T09:18:33Z</time>
      </trkpt>
      <trkpt lat="43.69488" lon="7.2686">
        <ele>5</ele>
        <time>2011-08-22T09:18:46Z</time>
      </trkpt>
      <trkpt lat="43.69492" lon="7.26998">
        <ele>10</ele>
        <time>2011-08-22T09:19:08Z</time>
      </trkpt>
      <trkpt lat="43.69491" lon="7.2711">
        <ele>11</ele>
        <time>2011-08-22T09:19:25Z</time>
      </trkpt>
      <trkpt lat="43.69493" lon="7.27211">
        <ele>12</ele>
        <time>2011-08-22T09:19:41Z</time>
      </trkpt>
      <trkpt lat="43.69494" lon="7.27229">
        <ele>12</ele>
        <time>2011-08-22T09:19:44Z</time>
      </trkpt>
      <trkpt lat="43.69495" lon="7.27316">
        <ele>8</ele>
        <time>2011-08-22T09:20:01Z</time>
      </trkpt>
      <trkpt lat="43.69496" lon="7.27342">
        <ele>7</ele>
        <time>2011-08-22T09:20:08Z</time>
      </trkpt>
      <trkpt lat="43.69502" lon="7.27345">
        <ele>9</ele>
        <time>2011-08-22T09:20:18Z</time>
      </trkpt>
      <trkpt lat="43.69504" lon="7.27344">
        <ele>9</ele>
        <time>2011-08-22T09:20:20Z</time>
      </trkpt>
      <trkpt lat="43.69524" lon="7.2735">
        <ele>10</ele>
        <time>2011-08-22T09:20:34Z</time>
      </trkpt>
      <trkpt lat="43.69535" lon="7.27349">
        <ele>10</ele>
        <time>2011-08-22T09:20:38Z</time>
      </trkpt>
      <trkpt lat="43.69545" lon="7.2735">
        <ele>10</ele>
        <time>2011-08-22T09:20:45Z</time>
      </trkpt>
      <trkpt lat="43.6955" lon="7.27347">
        <ele>11</ele>
        <time>2011-08-22T09:20:48Z</time>
      </trkpt>
      <trkpt lat="43.69555" lon="7.27352">
        <ele>11</ele>
        <time>2011-08-22T09:20:52Z</time>
      </trkpt>
      <trkpt lat="43.69574" lon="7.2735">
        <ele>12</ele>
        <time>2011-08-22T09:21:08Z</time>
      </trkpt>
      <trkpt lat="43.6958" lon="7.27361">
        <ele>12</ele>
        <time>2011-08-22T09:24:10Z</time>
      </trkpt>
      <trkpt lat="43.69579" lon="7.27388">
        <ele>11</ele>
        <time>2011-08-22T09:24:24Z</time>
      </trkpt>
      <trkpt lat="43.69575" lon="7.27411">
        <ele>11</ele>
        <time>2011-08-22T09:24:42Z</time>
      </trkpt>
      <trkpt lat="43.69575" lon="7.27413">
        <ele>11</ele>
        <time>2011-08-22T09:24:44Z</time>
      </trkpt>
      <trkpt lat="43.69574" lon="7.2742">
        <ele>11</ele>
        <time>2011-08-22T09:24:49Z</time>
      </trkpt>
      <trkpt lat="43.6957" lon="7.27443">
        <ele>10</ele>
        <time>2011-08-22T09:25:07Z</time>
      </trkpt>
      <trkpt lat="43.69569" lon="7.2746">
        <ele>10</ele>
        <time>2011-08-22T09:25:22Z</time>
      </trkpt>
      <trkpt lat="43.69563" lon="7.27488">
        <ele>10</ele>
        <time>2011-08-22T09:25:43Z</time>
      </trkpt>
      <trkpt lat="43.6957" lon="7.27489">
        <ele>10</ele>
        <time>2011-08-22T09:25:56Z</time>
      </trkpt>
      <trkpt lat="43.69576" lon="7.27497">
        <ele>11</ele>
        <time>2011-08-22T09:26:12Z</time>
      </trkpt>
      <trkpt lat="43.69576" lon="7.27502">
        <ele>11</ele>
        <time>2011-08-22T09:26:56Z</time>
      </trkpt>
      <trkpt lat="43.69595" lon="7.27505">
        <ele>15</ele>
        <time>2011-08-22T09:27:05Z</time>
      </trkpt>
      <trkpt lat="43.69602" lon="7.27512">
        <ele>16</ele>
        <time>2011-08-22T09:27:13Z</time>
      </trkpt>
      <trkpt lat="43.69608" lon="7.27526">
        <ele>17</ele>
        <time>2011-08-22T09:27:18Z</time>
      </trkpt>
      <trkpt lat="43.69608" lon="7.2754">
        <ele>17</ele>
        <time>2011-08-22T09:27:23Z</time>
      </trkpt>
      <trkpt lat="43.69615" lon="7.27552">
        <ele>18</ele>
        <time>2011-08-22T09:27:34Z</time>
      </trkpt>
      <trkpt lat="43.69617" lon="7.27554">
        <ele>18</ele>
        <time>2011-08-22T09:27:38Z</time>
      </trkpt>
      <trkpt lat="43.69633" lon="7.27572">
        <ele>19</ele>
        <time>2011-08-22T09:27:57Z</time>
      </trkpt>
      <trkpt lat="43.69634" lon="7.27573">
        <ele>19</ele>
        <time>2011-08-22T09:28:14Z</time>
      </trkpt>
      <trkpt lat="43.69609" lon="7.27572">
        <ele>17</ele>
        <time>2011-08-22T09:28:28Z</time>
      </trkpt>
      <trkpt lat="43.6959" lon="7.27572">
        <ele>16</ele>
        <time>2011-08-22T09:28:38Z</time>
      </trkpt>
      <trkpt lat="43.69582" lon="7.27567">
        <ele>12</ele>
        <time>2011-08-22T09:28:42Z</time>
      </trkpt>
      <trkpt lat="43.69568" lon="7.27556">
        <ele>11</ele>
        <time>2011-08-22T09:28:50Z</time>
      </trkpt>
      <trkpt lat="43.69564" lon="7.27563">
        <ele>11</ele>
        <time>2011-08-22T09:28:56Z</time>
      </trkpt>
      <trkpt lat="43.69565" lon="7.27574">
        <ele>12</ele>
        <time>2011-08-22T09:29:03Z</time>
      </trkpt>
      <trkpt lat="43.69561" lon="7.27594">
        <ele>13</ele>
        <time>2011-08-22T09:29:14Z</time>
      </trkpt>
      <trkpt lat="43.69557" lon="7.27614">
        <ele>12</ele>
        <time>2011-08-22T09:29:28Z</time>
      </trkpt>
      <trkpt lat="43.69556" lon="7.27629">
        <ele>12</ele>
        <time>2011-08-22T09:29:43Z</time>
      </trkpt>
      <trkpt lat="43.69548" lon="7.27648">
        <ele>12</ele>
        <time>2011-08-22T09:30:04Z</time>
      </trkpt>
      <trkpt lat="43.69541" lon="7.27645">
        <ele>12</ele>
        <time>2011-08-22T09:30:18Z</time>
      </trkpt>
      <trkpt lat="43.69537" lon="7.27638">
        <ele>11</ele>
        <time>2011-08-22T09:30:35Z</time>
      </trkpt>
      <trkpt lat="43.69522" lon="7.27643">
        <ele>11</ele>
        <time>2011-08-22T09:30:50Z</time>
      </trkpt>
      <trkpt lat="43.69522" lon="7.27648">
        <ele>11</ele>
        <time>2011-08-22T09:30:55Z</time>
      </trkpt>
      <trkpt lat="43.69525" lon="7.2767">
        <ele>13</ele>
        <time>2011-08-22T09:31:03Z</time>
      </trkpt>
      <trkpt lat="43.69526" lon="7.27682">
        <ele>13</ele>
        <time>2011-08-22T09:31:09Z</time>
      </trkpt>
      <trkpt lat="43.69504" lon="7.2769">
        <ele>12</ele>
        <time>2011-08-22T09:31:21Z</time>
      </trkpt>
      <trkpt lat="43.69489" lon="7.27676">
        <ele>8</ele>
        <time>2011-08-22T09:31:38Z</time>
      </trkpt>
      <trkpt lat="43.69484" lon="7.27668">
        <ele>8</ele>
        <time>2011-08-22T09:31:54Z</time>
      </trkpt>
      <trkpt lat="43.6949" lon="7.27626">
        <ele>6</ele>
        <time>2011-08-22T09:32:09Z</time>
      </trkpt>
      <trkpt lat="43.69491" lon="7.2757">
        <ele>5</ele>
        <time>2011-08-22T09:32:27Z</time>
      </trkpt>
      <trkpt lat="43.69493" lon="7.27561">
        <ele>5</ele>
        <time>2011-08-22T09:32:43Z</time>
      </trkpt>
      <trkpt lat="43.69497" lon="7.27545">
        <ele>5</ele>
        <time>2011-08-22T09:35:23Z</time>
      </trkpt>
      <trkpt lat="43.69504" lon="7.27482">
        <ele>7</ele>
        <time>2011-08-22T09:35:37Z</time>
      </trkpt>
      <trkpt lat="43.69507" lon="7.27379">
        <ele>9</ele>
        <time>2011-08-22T09:35:56Z</time>
      </trkpt>
      <trkpt lat="43.695" lon="7.27345">
        <ele>9</ele>
        <time>2011-08-22T09:36:02Z</time>
      </trkpt>
      <trkpt lat="43.69496" lon="7.27269">
        <ele>10</ele>
        <time>2011-08-22T09:36:15Z</time>
      </trkpt>
      <trkpt lat="43.69495" lon="7.27175">
        <ele>12</ele>
        <time>2011-08-22T09:36:32Z</time>
      </trkpt>
      <trkpt lat="43.69495" lon="7.27102">
        <ele>10</ele>
        <time>2011-08-22T09:36:48Z</time>
      </trkpt>
      <trkpt lat="43.69495" lon="7.27099">
        <ele>10</ele>
        <time>2011-08-22T09:36:49Z</time>
      </trkpt>
      <trkpt lat="43.69499" lon="7.27093">
        <ele>10</ele>
        <time>2011-08-22T09:36:53Z</time>
      </trkpt>
      <trkpt lat="43.69504" lon="7.27088">
        <ele>11</ele>
        <time>2011-08-22T09:36:57Z</time>
      </trkpt>
      <trkpt lat="43.6951" lon="7.27088">
        <ele>11</ele>
        <time>2011-08-22T09:37:09Z</time>
      </trkpt>
      <trkpt lat="43.69512" lon="7.27087">
        <ele>11</ele>
        <time>2011-08-22T09:37:12Z</time>
      </trkpt>
      <trkpt lat="43.69517" lon="7.27082">
        <ele>11</ele>
        <time>2011-08-22T09:37:15Z</time>
      </trkpt>
      <trkpt lat="43.69531" lon="7.27086">
        <ele>12</ele>
        <time>2011-08-22T09:37:21Z</time>
      </trkpt>
      <trkpt lat="43.69556" lon="7.27082">
        <ele>13</ele>
        <time>2011-08-22T09:37:31Z</time>
      </trkpt>
      <trkpt lat="43.69565" lon="7.27082">
        <ele>13</ele>
        <time>2011-08-22T09:37:42Z</time>
      </trkpt>
      <trkpt lat="43.69571" lon="7.27076">
        <ele>13</ele>
        <time>2011-08-22T09:37:46Z</time>
      </trkpt>
      <trkpt lat="43.69572" lon="7.27062">
        <ele>13</ele>
        <time>2011-08-22T09:37:51Z</time>
      </trkpt>
      <trkpt lat="43.6957" lon="7.27007">
        <ele>14</ele>
        <time>2011-08-22T09:38:06Z</time>
      </trkpt>
      <trkpt lat="43.69569" lon="7.26948">
        <ele>12</ele>
        <time>2011-08-22T09:38:18Z</time>
      </trkpt>
      <trkpt lat="43.69569" lon="7.26925">
        <ele>12</ele>
        <time>2011-08-22T09:38:24Z</time>
      </trkpt>
      <trkpt lat="43.69578" lon="7.26923">
        <ele>12</ele>
        <time>2011-08-22T09:38:28Z</time>
      </trkpt>
      <trkpt lat="43.69587" lon="7.26922">
        <ele>13</ele>
        <time>2011-08-22T09:38:31Z</time>
      </trkpt>
      <trkpt lat="43.69612" lon="7.26926">
        <ele>13</ele>
        <time>2011-08-22T09:38:38Z</time>
      </trkpt>
      <trkpt lat="43.69622" lon="7.2695">
        <ele>13</ele>
        <time>2011-08-22T09:38:43Z</time>
      </trkpt>
      <trkpt lat="43.69642" lon="7.27004">
        <ele>12</ele>
        <time>2011-08-22T09:38:52Z</time>
      </trkpt>
      <trkpt lat="43.69654" lon="7.27022">
        <ele>12</ele>
        <time>2011-08-22T09:38:56Z</time>
      </trkpt>
      <trkpt lat="43.69706" lon="7.27032">
        <ele>12</ele>
        <time>2011-08-22T09:39:11Z</time>
      </trkpt>
      <trkpt lat="43.69742" lon="7.27007">
        <ele>12</ele>
        <time>2011-08-22T09:39:22Z</time>
      </trkpt>
      <trkpt lat="43.6981" lon="7.26965">
        <ele>17</ele>
        <time>2011-08-22T09:39:38Z</time>
      </trkpt>
      <trkpt lat="43.69814" lon="7.26963">
        <ele>17</ele>
        <time>2011-08-22T09:39:39Z</time>
      </trkpt>
      <trkpt lat="43.69869" lon="7.26926">
        <ele>18</ele>
        <time>2011-08-22T09:39:52Z</time>
      </trkpt>
      <trkpt lat="43.69931" lon="7.26886">
        <ele>16</ele>
        <time>2011-08-22T09:40:04Z</time>
      </trkpt>
      <trkpt lat="43.69975" lon="7.26861">
        <ele>15</ele>
        <time>2011-08-22T09:40:15Z</time>
      </trkpt>
      <trkpt lat="43.69981" lon="7.2686">
        <ele>15</ele>
        <time>2011-08-22T09:40:31Z</time>
      </trkpt>
      <trkpt lat="43.70001" lon="7.26846">
        <ele>14</ele>
        <time>2011-08-22T09:40:40Z</time>
      </trkpt>
      <trkpt lat="43.70016" lon="7.26833">
        <ele>14</ele>
        <time>2011-08-22T09:40:45Z</time>
      </trkpt>
      <trkpt lat="43.70028" lon="7.26826">
        <ele>14</ele>
        <time>2011-08-22T09:40:48Z</time>
      </trkpt>
      <trkpt lat="43.7011" lon="7.26773">
        <ele>15</ele>
        <time>2011-08-22T09:41:05Z</time>
      </trkpt>
      <trkpt lat="43.70255" lon="7.26679">
        <ele>19</ele>
        <time>2011-08-22T09:41:34Z</time>
      </trkpt>
      <trkpt lat="43.70294" lon="7.26661">
        <ele>20</ele>
        <time>2011-08-22T09:41:42Z</time>
      </trkpt>
      <trkpt lat="43.70303" lon="7.26656">
        <ele>20</ele>
        <time>2011-08-22T09:41:44Z</time>
      </trkpt>
      <trkpt lat="43.70322" lon="7.2664">
        <ele>20</ele>
        <time>2011-08-22T09:41:49Z</time>
      </trkpt>
      <trkpt lat="43.70332" lon="7.26638">
        <ele>20</ele>
        <time>2011-08-22T09:41:55Z</time>
      </trkpt>
      <trkpt lat="43.70367" lon="7.26613">
        <ele>20</ele>
        <time>2011-08-22T09:42:06Z</time>
      </trkpt>
      <trkpt lat="43.70419" lon="7.26576">
        <ele>19</ele>
        <time>2011-08-22T09:42:18Z</time>
      </trkpt>
      <trkpt lat="43.70428" lon="7.26568">
        <ele>20</ele>
        <time>2011-08-22T09:42:23Z</time>
      </trkpt>
      <trkpt lat="43.70467" lon="7.26546">
        <ele>20</ele>
        <time>2011-08-22T09:42:34Z</time>
      </trkpt>
      <trkpt lat="43.70485" lon="7.26535">
        <ele>20</ele>
        <time>2011-08-22T09:42:38Z</time>
      </trkpt>
      <trkpt lat="43.70508" lon="7.26517">
        <ele>21</ele>
        <time>2011-08-22T09:42:43Z</time>
      </trkpt>
      <trkpt lat="43.70527" lon="7.26509">
        <ele>21</ele>
        <time>2011-08-22T09:42:50Z</time>
      </trkpt>
      <trkpt lat="43.70576" lon="7.26483">
        <ele>21</ele>
        <time>2011-08-22T09:43:02Z</time>
      </trkpt>
      <trkpt lat="43.70587" lon="7.26474">
        <ele>22</ele>
        <time>2011-08-22T09:43:05Z</time>
      </trkpt>
      <trkpt lat="43.70617" lon="7.26454">
        <ele>23</ele>
        <time>2011-08-22T09:43:14Z</time>
      </trkpt>
      <trkpt lat="43.70653" lon="7.26432">
        <ele>25</ele>
        <time>2011-08-22T09:43:24Z</time>
      </trkpt>
      <trkpt lat="43.70659" lon="7.2643">
        <ele>25</ele>
        <time>2011-08-22T09:43:26Z</time>
      </trkpt>
      <trkpt lat="43.70665" lon="7.26431">
        <ele>25</ele>
        <time>2011-08-22T09:43:29Z</time>
      </trkpt>
      <trkpt lat="43.70697" lon="7.26404">
        <ele>26</ele>
        <time>2011-08-22T09:43:40Z</time>
      </trkpt>
      <trkpt lat="43.70728" lon="7.26386">
        <ele>26</ele>
        <time>2011-08-22T09:43:50Z</time>
      </trkpt>
      <trkpt lat="43.70765" lon="7.26354">
        <ele>27</ele>
        <time>2011-08-22T09:44:04Z</time>
      </trkpt>
      <trkpt lat="43.70797" lon="7.26335">
        <ele>27</ele>
        <time>2011-08-22T09:44:12Z</time>
      </trkpt>
      <trkpt lat="43.70855" lon="7.26298">
        <ele>28</ele>
        <time>2011-08-22T09:44:27Z</time>
      </trkpt>
      <trkpt lat="43.70882" lon="7.2628">
        <ele>28</ele>
        <time>2011-08-22T09:44:36Z</time>
      </trkpt>
      <trkpt lat="43.70883" lon="7.26279">
        <ele>28</ele>
        <time>2011-08-22T09:44:49Z</time>
      </trkpt>
      <trkpt lat="43.70885" lon="7.26274">
        <ele>28</ele>
        <time>2011-08-22T09:45:01Z</time>
      </trkpt>
      <trkpt lat="43.70911" lon="7.26257">
        <ele>27</ele>
        <time>2011-08-22T09:45:13Z</time>
      </trkpt>
      <trkpt lat="43.70959" lon="7.26229">
        <ele>26</ele>
        <time>2011-08-22T09:45:26Z</time>
      </trkpt>
      <trkpt lat="43.70998" lon="7.26203">
        <ele>26</ele>
        <time>2011-08-22T09:45:39Z</time>
      </trkpt>
      <trkpt lat="43.70993" lon="7.26193">
        <ele>27</ele>
        <time>2011-08-22T09:45:44Z</time>
      </trkpt>
      <trkpt lat="43.70994" lon="7.26193">
        <ele>27</ele>
        <time>2011-08-22T09:45:50Z</time>
      </trkpt>
      <trkpt lat="43.70993" lon="7.26199">
        <ele>27</ele>
        <time>2011-08-22T09:46:10Z</time>
      </trkpt>
      <trkpt lat="43.70992" lon="7.26201">
        <ele>27</ele>
        <time>2011-08-22T09:46:24Z</time>
      </trkpt>
      <trkpt lat="43.70956" lon="7.26214">
        <ele>26</ele>
        <time>2011-08-22T09:46:35Z</time>
      </trkpt>
      <trkpt lat="43.70901" lon="7.26249">
        <ele>27</ele>
        <time>2011-08-22T09:46:51Z</time>
      </trkpt>
      <trkpt lat="43.70866" lon="7.26276">
        <ele>28</ele>
        <time>2011-08-22T09:47:01Z</time>
      </trkpt>
      <trkpt lat="43.7084" lon="7.26293">
        <ele>28</ele>
        <time>2011-08-22T09:47:08Z</time>
      </trkpt>
      <trkpt lat="43.70817" lon="7.26311">
        <ele>27</ele>
        <time>2011-08-22T09:47:18Z</time>
      </trkpt>
      <trkpt lat="43.70771" lon="7.26344">
        <ele>27</ele>
        <time>2011-08-22T09:47:30Z</time>
      </trkpt>
      <trkpt lat="43.70767" lon="7.2635">
        <ele>27</ele>
        <time>2011-08-22T09:47:43Z</time>
      </trkpt>
      <trkpt lat="43.70753" lon="7.2636">
        <ele>27</ele>
        <time>2011-08-22T09:47:54Z</time>
      </trkpt>
      <trkpt lat="43.70731" lon="7.26377">
        <ele>26</ele>
        <time>2011-08-22T09:48:05Z</time>
      </trkpt>
      <trkpt lat="43.70671" lon="7.26406">
        <ele>27</ele>
        <time>2011-08-22T09:48:16Z</time>
      </trkpt>
      <trkpt lat="43.70651" lon="7.26424">
        <ele>25</ele>
        <time>2011-08-22T09:48:21Z</time>
      </trkpt>
      <trkpt lat="43.70611" lon="7.26448">
        <ele>23</ele>
        <time>2011-08-22T09:48:32Z</time>
      </trkpt>
      <trkpt lat="43.70602" lon="7.2646">
        <ele>23</ele>
        <time>2011-08-22T09:48:37Z</time>
      </trkpt>
      <trkpt lat="43.70577" lon="7.26464">
        <ele>21</ele>
        <time>2011-08-22T09:48:44Z</time>
      </trkpt>
      <trkpt lat="43.70551" lon="7.26473">
        <ele>21</ele>
        <time>2011-08-22T09:48:52Z</time>
      </trkpt>
      <trkpt lat="43.70537" lon="7.26468">
        <ele>21</ele>
        <time>2011-08-22T09:48:56Z</time>
      </trkpt>
      <trkpt lat="43.7051" lon="7.26449">
        <ele>21</ele>
        <time>2011-08-22T09:49:03Z</time>
      </trkpt>
      <trkpt lat="43.70477" lon="7.26358">
        <ele>21</ele>
        <time>2011-08-22T09:49:22Z</time>
      </trkpt>
      <trkpt lat="43.7047" lon="7.26336">
        <ele>20</ele>
        <time>2011-08-22T09:49:27Z</time>
      </trkpt>
      <trkpt lat="43.70464" lon="7.26287">
        <ele>20</ele>
        <time>2011-08-22T09:49:40Z</time>
      </trkpt>
      <trkpt lat="43.70467" lon="7.26259">
        <ele>20</ele>
        <time>2011-08-22T09:49:50Z</time>
      </trkpt>
      <trkpt lat="43.70465" lon="7.26248">
        <ele>19</ele>
        <time>2011-08-22T09:50:03Z</time>
      </trkpt>
      <trkpt lat="43.70458" lon="7.26241">
        <ele>19</ele>
        <time>2011-08-22T09:50:18Z</time>
      </trkpt>
      <trkpt lat="43.70453" lon="7.26239">
        <ele>19</ele>
        <time>2011-08-22T09:50:24Z</time>
      </trkpt>
      <trkpt lat="43.70449" lon="7.26241">
        <ele>19</ele>
        <time>2011-08-22T09:50:47Z</time>
      </trkpt>
      <trkpt lat="43.70449" lon="7.26241">
        <ele>19</ele>
        <time>2011-08-22T09:51:30Z</time>
      </trkpt>
      <trkpt lat="43.70439" lon="7.26198">
        <ele>19</ele>
        <time>2011-08-22T09:51:42Z</time>
      </trkpt>
      <trkpt lat="43.70429" lon="7.26174">
        <ele>19</ele>
        <time>2011-08-22T09:51:50Z</time>
      </trkpt>
      <trkpt lat="43.70431" lon="7.2617">
        <ele>19</ele>
        <time>2011-08-22T09:51:52Z</time>
      </trkpt>
      <trkpt lat="43.70422" lon="7.2615">
        <ele>19</ele>
        <time>2011-08-22T09:52:03Z</time>
      </trkpt>
      <trkpt lat="43.70419" lon="7.26147">
        <ele>19</ele>
        <time>2011-08-22T09:52:52Z</time>
      </trkpt>
      <trkpt lat="43.70416" lon="7.26147">
        <ele>20</ele>
        <time>2011-08-22T09:53:44Z</time>
      </trkpt>
      <trkpt lat="43.70412" lon="7.26148">
        <ele>20</ele>
        <time>2011-08-22T09:54:06Z</time>
      </trkpt>
      <trkpt lat="43.70411" lon="7.26149">
        <ele>20</ele>
        <time>2011-08-22T09:54:42Z</time>
      </trkpt>
      <trkpt lat="43.70407" lon="7.2615">
        <ele>20</ele>
        <time>2011-08-22T09:54:47Z</time>
      </trkpt>
      <trkpt lat="43.70405" lon="7.26158">
        <ele>20</ele>
        <time>2011-08-22T09:54:56Z</time>
      </trkpt>
      <trkpt lat="43.70404" lon="7.26158">
        <ele>20</ele>
        <time>2011-08-22T09:55:00Z</time>
      </trkpt>
      <trkpt lat="43.70405" lon="7.26172">
        <ele>19</ele>
        <time>2011-08-22T09:55:05Z</time>
      </trkpt>
      <trkpt lat="43.70399" lon="7.26188">
        <ele>19</ele>
        <time>2011-08-22T09:55:12Z</time>
      </trkpt>
      <trkpt lat="43.70403" lon="7.26203">
        <ele>19</ele>
        <time>2011-08-22T09:55:16Z</time>
      </trkpt>
      <trkpt lat="43.70422" lon="7.26258">
        <ele>19</ele>
        <time>2011-08-22T09:55:30Z</time>
      </trkpt>
      <trkpt lat="43.70427" lon="7.26272">
        <ele>20</ele>
        <time>2011-08-22T09:55:33Z</time>
      </trkpt>
      <trkpt lat="43.70437" lon="7.2635">
        <ele>21</ele>
        <time>2011-08-22T09:55:48Z</time>
      </trkpt>
      <trkpt lat="43.70437" lon="7.26354">
        <ele>21</ele>
        <time>2011-08-22T09:55:49Z</time>
      </trkpt>
      <trkpt lat="43.70446" lon="7.26383">
        <ele>21</ele>
        <time>2011-08-22T09:56:01Z</time>
      </trkpt>
      <trkpt lat="43.70458" lon="7.26412">
        <ele>21</ele>
        <time>2011-08-22T09:56:07Z</time>
      </trkpt>
      <trkpt lat="43.70457" lon="7.26459">
        <ele>21</ele>
        <time>2011-08-22T09:56:15Z</time>
      </trkpt>
      <trkpt lat="43.70442" lon="7.26465">
        <ele>21</ele>
        <time>2011-08-22T09:56:19Z</time>
      </trkpt>
      <trkpt lat="43.70393" lon="7.26455">
        <ele>19</ele>
        <time>2011-08-22T09:56:33Z</time>
      </trkpt>
      <trkpt lat="43.70344" lon="7.26463">
        <ele>18</ele>
        <time>2011-08-22T09:56:44Z</time>
      </trkpt>
      <trkpt lat="43.70307" lon="7.26466">
        <ele>17</ele>
        <time>2011-08-22T09:56:52Z</time>
      </trkpt>
      <trkpt lat="43.70284" lon="7.26472">
        <ele>17</ele>
        <time>2011-08-22T09:56:57Z</time>
      </trkpt>
      <trkpt lat="43.70253" lon="7.26475">
        <ele>17</ele>
        <time>2011-08-22T09:57:05Z</time>
      </trkpt>
      <trkpt lat="43.70225" lon="7.26483">
        <ele>18</ele>
        <time>2011-08-22T09:57:11Z</time>
      </trkpt>
      <trkpt lat="43.70209" lon="7.26489">
        <ele>18</ele>
        <time>2011-08-22T09:57:14Z</time>
      </trkpt>
      <trkpt lat="43.7018" lon="7.26483">
        <ele>18</ele>
        <time>2011-08-22T09:57:21Z</time>
      </trkpt>
      <trkpt lat="43.70109" lon="7.26494">
        <ele>17</ele>
        <time>2011-08-22T09:57:37Z</time>
      </trkpt>
      <trkpt lat="43.70076" lon="7.26499">
        <ele>16</ele>
        <time>2011-08-22T09:57:45Z</time>
      </trkpt>
      <trkpt lat="43.7007" lon="7.26521">
        <ele>15</ele>
        <time>2011-08-22T09:57:50Z</time>
      </trkpt>
      <trkpt lat="43.70071" lon="7.26581">
        <ele>15</ele>
        <time>2011-08-22T09:58:00Z</time>
      </trkpt>
      <trkpt lat="43.70057" lon="7.26581">
        <ele>15</ele>
        <time>2011-08-22T09:58:06Z</time>
      </trkpt>
      <trkpt lat="43.70044" lon="7.26583">
        <ele>15</ele>
        <time>2011-08-22T09:58:10Z</time>
      </trkpt>
      <trkpt lat="43.70018" lon="7.26598">
        <ele>16</ele>
        <time>2011-08-22T09:58:19Z</time>
      </trkpt>
      <trkpt lat="43.70013" lon="7.26601">
        <ele>16</ele>
        <time>2011-08-22T09:58:21Z</time>
      </trkpt>
      <trkpt lat="43.69996" lon="7.26563">
        <ele>16</ele>
        <time>2011-08-22T09:58:31Z</time>
      </trkpt>
      <trkpt lat="43.6998" lon="7.26516">
        <ele>16</ele>
        <time>2011-08-22T09:58:41Z</time>
      </trkpt>
      <trkpt lat="43.69969" lon="7.26508">
        <ele>17</ele>
        <time>2011-08-22T09:58:54Z</time>
      </trkpt>
      <trkpt lat="43.69968" lon="7.26497">
        <ele>17</ele>
        <time>2011-08-22T09:58:59Z</time>
      </trkpt>
      <trkpt lat="43.6996" lon="7.26481">
        <ele>17</ele>
        <time>2011-08-22T09:59:03Z</time>
      </trkpt>
      <trkpt lat="43.69949" lon="7.26472">
        <ele>17</ele>
        <time>2011-08-22T09:59:10Z</time>
      </trkpt>
      <trkpt lat="43.69919" lon="7.26495">
        <ele>18</ele>
        <time>2011-08-22T09:59:20Z</time>
      </trkpt>
      <trkpt lat="43.69873" lon="7.26512">
        <ele>17</ele>
        <time>2011-08-22T09:59:31Z</time>
      </trkpt>
      <trkpt lat="43.69846" lon="7.26531">
        <ele>16</ele>
        <time>2011-08-22T09:59:41Z</time>
      </trkpt>
      <trkpt lat="43.69829" lon="7.26536">
        <ele>16</ele>
        <time>2011-08-22T09:59:46Z</time>
      </trkpt>
      <trkpt lat="43.6982" lon="7.26544">
        <ele>16</ele>
        <time>2011-08-22T09:59:48Z</time>
      </trkpt>
      <trkpt lat="43.69814" lon="7.26546">
        <ele>16</ele>
        <time>2011-08-22T10:00:04Z</time>
      </trkpt>
      <trkpt lat="43.69814" lon="7.26544">
        <ele>16</ele>
        <time>2011-08-22T10:00:10Z</time>
      </trkpt>
      <trkpt lat="43.69815" lon="7.26548">
        <ele>16</ele>
        <time>2011-08-22T10:00:25Z</time>
      </trkpt>
      <trkpt lat="43.69815" lon="7.26549">
        <ele>16</ele>
        <time>2011-08-22T10:01:29Z</time>
      </trkpt>
      <trkpt lat="43.69826" lon="7.26532">
        <ele>16</ele>
        <time>2011-08-22T10:01:46Z</time>
      </trkpt>
      <trkpt lat="43.69842" lon="7.26518">
        <ele>16</ele>
        <time>2011-08-22T10:02:22Z</time>
      </trkpt>
      <trkpt lat="43.69846" lon="7.26507">
        <ele>16</ele>
        <time>2011-08-22T10:03:13Z</time>
      </trkpt>
      <trkpt lat="43.69848" lon="7.2651">
        <ele>16</ele>
        <time>2011-08-22T10:05:31Z</time>
      </trkpt>
      <trkpt lat="43.69844" lon="7.26514">
        <ele>16</ele>
        <time>2011-08-22T10:06:38Z</time>
      </trkpt>
      <trkpt lat="43.69828" lon="7.26515">
        <ele>16</ele>
        <time>2011-08-22T10:12:22Z</time>
      </trkpt>
      <trkpt lat="43.69819" lon="7.26512">
        <ele>16</ele>
        <time>2011-08-22T10:12:46Z</time>
      </trkpt>
      <trkpt lat="43.69819" lon="7.26513">
        <ele>16</ele>
        <time>2011-08-22T10:13:05Z</time>
      </trkpt>
      <trkpt lat="43.69811" lon="7.26495">
        <ele>16</ele>
        <time>2011-08-22T10:13:25Z</time>
      </trkpt>
      <trkpt lat="43.69811" lon="7.26499">
        <ele>16</ele>
        <time>2011-08-22T10:13:49Z</time>
      </trkpt>
      <trkpt lat="43.69813" lon="7.26507">
        <ele>16</ele>
        <time>2011-08-22T10:14:45Z</time>
      </trkpt>
      <trkpt lat="43.69816" lon="7.26518">
        <ele>16</ele>
        <time>2011-08-22T10:14:57Z</time>
      </trkpt>
      <trkpt lat="43.69811" lon="7.26525">
        <ele>16</ele>
        <time>2011-08-22T10:15:01Z</time>
      </trkpt>
      <trkpt lat="43.69809" lon="7.2653">
        <ele>16</ele>
        <time>2011-08-22T10:15:03Z</time>
      </trkpt>
      <trkpt lat="43.69794" lon="7.26553">
        <ele>16</ele>
        <time>2011-08-22T10:15:14Z</time>
      </trkpt>
      <trkpt lat="43.69789" lon="7.26557">
        <ele>16</ele>
        <time>2011-08-22T10:15:25Z</time>
      </trkpt>
      <trkpt lat="43.69783" lon="7.2656">
        <ele>16</ele>
        <time>2011-08-22T10:15:50Z</time>
      </trkpt>
      <trkpt lat="43.69746" lon="7.26586">
        <ele>17</ele>
        <time>2011-08-22T10:16:07Z</time>
      </trkpt>
      <trkpt lat="43.69738" lon="7.26594">
        <ele>16</ele>
        <time>2011-08-22T10:16:12Z</time>
      </trkpt>
      <trkpt lat="43.69726" lon="7.26584">
        <ele>16</ele>
        <time>2011-08-22T10:16:25Z</time>
      </trkpt>
      <trkpt lat="43.69723" lon="7.26566">
        <ele>16</ele>
        <time>2011-08-22T10:16:42Z</time>
      </trkpt>
      <trkpt lat="43.69723" lon="7.26562">
        <ele>16</ele>
        <time>2011-08-22T10:16:46Z</time>
      </trkpt>
      <trkpt lat="43.6972" lon="7.26542">
        <ele>16</ele>
        <time>2011-08-22T10:17:02Z</time>
      </trkpt>
      <trkpt lat="43.69717" lon="7.26531">
        <ele>16</ele>
        <time>2011-08-22T10:17:12Z</time>
      </trkpt>
      <trkpt lat="43.69709" lon="7.26528">
        <ele>15</ele>
        <time>2011-08-22T10:17:15Z</time>
      </trkpt>
      <trkpt lat="43.69699" lon="7.26528">
        <ele>15</ele>
        <time>2011-08-22T10:17:23Z</time>
      </trkpt>
      <trkpt lat="43.69696" lon="7.26533">
        <ele>15</ele>
        <time>2011-08-22T10:17:28Z</time>
      </trkpt>
      <trkpt lat="43.69694" lon="7.26536">
        <ele>15</ele>
        <time>2011-08-22T10:17:31Z</time>
      </trkpt>
      <trkpt lat="43.69675" lon="7.26584">
        <ele>15</ele>
        <time>2011-08-22T10:17:45Z</time>
      </trkpt>
      <trkpt lat="43.69647" lon="7.26614">
        <ele>14</ele>
        <time>2011-08-22T10:17:54Z</time>
      </trkpt>
      <trkpt lat="43.69639" lon="7.26627">
        <ele>14</ele>
        <time>2011-08-22T10:17:58Z</time>
      </trkpt>
      <trkpt lat="43.69638" lon="7.26647">
        <ele>13</ele>
        <time>2011-08-22T10:18:03Z</time>
      </trkpt>
      <trkpt lat="43.69634" lon="7.26645">
        <ele>14</ele>
        <time>2011-08-22T10:18:13Z</time>
      </trkpt>
      <trkpt lat="43.69633" lon="7.26645">
        <ele>14</ele>
        <time>2011-08-22T10:18:15Z</time>
      </trkpt>
      <trkpt lat="43.69632" lon="7.26632">
        <ele>14</ele>
        <time>2011-08-22T10:18:22Z</time>
      </trkpt>
      <trkpt lat="43.69621" lon="7.26639">
        <ele>14</ele>
        <time>2011-08-22T10:18:26Z</time>
      </trkpt>
      <trkpt lat="43.6961" lon="7.26656">
        <ele>13</ele>
        <time>2011-08-22T10:18:32Z</time>
      </trkpt>
      <trkpt lat="43.69588" lon="7.26669">
        <ele>12</ele>
        <time>2011-08-22T10:18:37Z</time>
      </trkpt>
      <trkpt lat="43.69566" lon="7.26656">
        <ele>12</ele>
        <time>2011-08-22T10:18:49Z</time>
      </trkpt>
      <trkpt lat="43.69565" lon="7.26661">
        <ele>12</ele>
        <time>2011-08-22T10:18:57Z</time>
      </trkpt>
      <trkpt lat="43.69556" lon="7.26669">
        <ele>10</ele>
        <time>2011-08-22T10:19:15Z</time>
      </trkpt>
      <trkpt lat="43.69556" lon="7.26669">
        <ele>10</ele>
        <time>2011-08-22T10:19:16Z</time>
      </trkpt>
      <trkpt lat="43.6952" lon="7.26649">
        <ele>11</ele>
        <time>2011-08-22T10:19:31Z</time>
      </trkpt>
      <trkpt lat="43.69513" lon="7.26652">
        <ele>10</ele>
        <time>2011-08-22T10:19:39Z</time>
      </trkpt>
      <trkpt lat="43.6951" lon="7.26637">
        <ele>11</ele>
        <time>2011-08-22T10:19:47Z</time>
      </trkpt>
      <trkpt lat="43.69492" lon="7.26634">
        <ele>9</ele>
        <time>2011-08-22T10:20:02Z</time>
      </trkpt>
      <trkpt lat="43.69482" lon="7.26629">
        <ele>9</ele>
        <time>2011-08-22T10:20:14Z</time>
      </trkpt>
      <trkpt lat="43.69482" lon="7.26578">
        <ele>11</ele>
        <time>2011-08-22T10:20:27Z</time>
      </trkpt>
      <trkpt lat="43.69472" lon="7.26477">
        <ele>10</ele>
        <time>2011-08-22T10:20:45Z</time>
      </trkpt>
      <trkpt lat="43.69468" lon="7.26416">
        <ele>10</ele>
        <time>2011-08-22T10:21:01Z</time>
      </trkpt>
      <trkpt lat="43.69469" lon="7.264">
        <ele>10</ele>
        <time>2011-08-22T10:21:14Z</time>
      </trkpt>
    </trkseg>
  </trk>
</gpx>